<?xml version="1.0" encoding="UTF-8" standalone="no" ?>
<gpx xmlns="http://www.topografix.com/GPX/1/1" xmlns:xsi="http://www.w3.org/2001/XMLSchema-instance" xsi:schemaLocation="http://www.topografix.com/GPX/1/1 http://www.topografix.com/GPX/1/1/gpx.xsd" version="1.1" creator="VisuGPX - https://www.visugpx.com">
  <metadata>
    <name>Valmasque - RRaTT du 28/09/11</name>
    <desc><![CDATA[Balade du midi avec Stéphane.]]></desc>
  </metadata>
  <trk>
    <name><![CDATA[RRaTT]]></name>
    <cmt><![CDATA[Balade sympatoche du midi avec Stéphane, sur les classiques de la Valmasque.]]></cmt>
    <trkseg>
      <trkpt lat="43.60419" lon="7.04867">
        <ele>180.54272460938</ele>
        <time>2011-09-28T10:17:09Z</time>
      </trkpt>
      <trkpt lat="43.6042" lon="7.04867">
        <ele>180.50003051758</ele>
        <time>2011-09-28T10:17:10Z</time>
      </trkpt>
      <trkpt lat="43.60426" lon="7.04871">
        <ele>180.06213378906</ele>
        <time>2011-09-28T10:17:13Z</time>
      </trkpt>
      <trkpt lat="43.60435" lon="7.04872">
        <ele>179.78193664551</ele>
        <time>2011-09-28T10:17:16Z</time>
      </trkpt>
      <trkpt lat="43.60439" lon="7.04874">
        <ele>179.6173248291</ele>
        <time>2011-09-28T10:17:17Z</time>
      </trkpt>
      <trkpt lat="43.6046" lon="7.04879">
        <ele>177.86630249023</ele>
        <time>2011-09-28T10:17:22Z</time>
      </trkpt>
      <trkpt lat="43.60464" lon="7.04878">
        <ele>177.55595397949</ele>
        <time>2011-09-28T10:17:23Z</time>
      </trkpt>
      <trkpt lat="43.60475" lon="7.0487">
        <ele>176.94920349121</ele>
        <time>2011-09-28T10:17:26Z</time>
      </trkpt>
      <trkpt lat="43.6048" lon="7.0487">
        <ele>176.3505859375</ele>
        <time>2011-09-28T10:17:27Z</time>
      </trkpt>
      <trkpt lat="43.60489" lon="7.04865">
        <ele>175.33502197266</ele>
        <time>2011-09-28T10:17:29Z</time>
      </trkpt>
      <trkpt lat="43.60504" lon="7.04847">
        <ele>174.75822448731</ele>
        <time>2011-09-28T10:17:33Z</time>
      </trkpt>
      <trkpt lat="43.60512" lon="7.0484">
        <ele>174.63806152344</ele>
        <time>2011-09-28T10:17:35Z</time>
      </trkpt>
      <trkpt lat="43.6052" lon="7.04833">
        <ele>174.60372924805</ele>
        <time>2011-09-28T10:17:37Z</time>
      </trkpt>
      <trkpt lat="43.60524" lon="7.04828">
        <ele>174.6174621582</ele>
        <time>2011-09-28T10:17:38Z</time>
      </trkpt>
      <trkpt lat="43.60535" lon="7.04813">
        <ele>174.21664428711</ele>
        <time>2011-09-28T10:17:41Z</time>
      </trkpt>
      <trkpt lat="43.60541" lon="7.04793">
        <ele>174.12600708008</ele>
        <time>2011-09-28T10:17:45Z</time>
      </trkpt>
      <trkpt lat="43.60545" lon="7.04789">
        <ele>173.50286865234</ele>
        <time>2011-09-28T10:17:46Z</time>
      </trkpt>
      <trkpt lat="43.60552" lon="7.04779">
        <ele>172.61366271973</ele>
        <time>2011-09-28T10:17:49Z</time>
      </trkpt>
      <trkpt lat="43.60563" lon="7.04768">
        <ele>170.27130126953</ele>
        <time>2011-09-28T10:17:53Z</time>
      </trkpt>
      <trkpt lat="43.60566" lon="7.04766">
        <ele>169.64988708496</ele>
        <time>2011-09-28T10:17:54Z</time>
      </trkpt>
      <trkpt lat="43.60579" lon="7.04754">
        <ele>167.00802612305</ele>
        <time>2011-09-28T10:17:59Z</time>
      </trkpt>
      <trkpt lat="43.60588" lon="7.04741">
        <ele>165.37120056152</ele>
        <time>2011-09-28T10:18:04Z</time>
      </trkpt>
      <trkpt lat="43.6059" lon="7.04739">
        <ele>165.08584594727</ele>
        <time>2011-09-28T10:18:05Z</time>
      </trkpt>
      <trkpt lat="43.60598" lon="7.04732">
        <ele>164.18530273438</ele>
        <time>2011-09-28T10:18:08Z</time>
      </trkpt>
      <trkpt lat="43.60611" lon="7.04716">
        <ele>162.97491455078</ele>
        <time>2011-09-28T10:18:13Z</time>
      </trkpt>
      <trkpt lat="43.60617" lon="7.04711">
        <ele>162.35693359375</ele>
        <time>2011-09-28T10:18:15Z</time>
      </trkpt>
      <trkpt lat="43.6063" lon="7.04711">
        <ele>160.91497802734</ele>
        <time>2011-09-28T10:18:17Z</time>
      </trkpt>
      <trkpt lat="43.60635" lon="7.04708">
        <ele>160.46179199219</ele>
        <time>2011-09-28T10:18:18Z</time>
      </trkpt>
      <trkpt lat="43.60646" lon="7.04697">
        <ele>157.79891967773</ele>
        <time>2011-09-28T10:18:21Z</time>
      </trkpt>
      <trkpt lat="43.60659" lon="7.04687">
        <ele>154.34600830078</ele>
        <time>2011-09-28T10:18:24Z</time>
      </trkpt>
      <trkpt lat="43.60661" lon="7.04683">
        <ele>153.7197265625</ele>
        <time>2011-09-28T10:18:25Z</time>
      </trkpt>
      <trkpt lat="43.60664" lon="7.04678">
        <ele>153.09521484375</ele>
        <time>2011-09-28T10:18:26Z</time>
      </trkpt>
      <trkpt lat="43.60672" lon="7.04664">
        <ele>152.91264343262</ele>
        <time>2011-09-28T10:18:30Z</time>
      </trkpt>
      <trkpt lat="43.60674" lon="7.04662">
        <ele>152.94247436523</ele>
        <time>2011-09-28T10:18:31Z</time>
      </trkpt>
      <trkpt lat="43.60673" lon="7.04659">
        <ele>153.09690856934</ele>
        <time>2011-09-28T10:18:34Z</time>
      </trkpt>
      <trkpt lat="43.60675" lon="7.04654">
        <ele>153.27185058594</ele>
        <time>2011-09-28T10:18:42Z</time>
      </trkpt>
      <trkpt lat="43.60678" lon="7.04651">
        <ele>153.3616027832</ele>
        <time>2011-09-28T10:18:48Z</time>
      </trkpt>
      <trkpt lat="43.60683" lon="7.04644">
        <ele>153.70942687988</ele>
        <time>2011-09-28T10:18:52Z</time>
      </trkpt>
      <trkpt lat="43.6069" lon="7.04631">
        <ele>154.30136108398</ele>
        <time>2011-09-28T10:18:58Z</time>
      </trkpt>
      <trkpt lat="43.60694" lon="7.04618">
        <ele>154.76312255859</ele>
        <time>2011-09-28T10:19:02Z</time>
      </trkpt>
      <trkpt lat="43.60706" lon="7.04608">
        <ele>155.13595581055</ele>
        <time>2011-09-28T10:19:06Z</time>
      </trkpt>
      <trkpt lat="43.60712" lon="7.04586">
        <ele>156.50334167481</ele>
        <time>2011-09-28T10:19:11Z</time>
      </trkpt>
      <trkpt lat="43.60715" lon="7.04557">
        <ele>158.65075683594</ele>
        <time>2011-09-28T10:19:16Z</time>
      </trkpt>
      <trkpt lat="43.60716" lon="7.04551">
        <ele>158.94958496094</ele>
        <time>2011-09-28T10:19:17Z</time>
      </trkpt>
      <trkpt lat="43.60722" lon="7.04536">
        <ele>159.72085571289</ele>
        <time>2011-09-28T10:19:21Z</time>
      </trkpt>
      <trkpt lat="43.60736" lon="7.04528">
        <ele>159.98348999023</ele>
        <time>2011-09-28T10:19:25Z</time>
      </trkpt>
      <trkpt lat="43.60749" lon="7.0452">
        <ele>161.13558959961</ele>
        <time>2011-09-28T10:19:30Z</time>
      </trkpt>
      <trkpt lat="43.60762" lon="7.04519">
        <ele>161.12469482422</ele>
        <time>2011-09-28T10:19:35Z</time>
      </trkpt>
      <trkpt lat="43.60777" lon="7.04516">
        <ele>161.31411743164</ele>
        <time>2011-09-28T10:19:40Z</time>
      </trkpt>
      <trkpt lat="43.60787" lon="7.04506">
        <ele>162.31939697266</ele>
        <time>2011-09-28T10:19:45Z</time>
      </trkpt>
      <trkpt lat="43.60807" lon="7.04502">
        <ele>162.90861511231</ele>
        <time>2011-09-28T10:19:51Z</time>
      </trkpt>
      <trkpt lat="43.60814" lon="7.04513">
        <ele>162.26409912109</ele>
        <time>2011-09-28T10:19:55Z</time>
      </trkpt>
      <trkpt lat="43.60813" lon="7.04535">
        <ele>160.68644714356</ele>
        <time>2011-09-28T10:20:00Z</time>
      </trkpt>
      <trkpt lat="43.6081" lon="7.04558">
        <ele>160.11807250977</ele>
        <time>2011-09-28T10:20:06Z</time>
      </trkpt>
      <trkpt lat="43.60811" lon="7.04579">
        <ele>159.67553710938</ele>
        <time>2011-09-28T10:20:11Z</time>
      </trkpt>
      <trkpt lat="43.60817" lon="7.04603">
        <ele>159.85470581055</ele>
        <time>2011-09-28T10:20:16Z</time>
      </trkpt>
      <trkpt lat="43.60832" lon="7.04623">
        <ele>161.82109069824</ele>
        <time>2011-09-28T10:20:21Z</time>
      </trkpt>
      <trkpt lat="43.60843" lon="7.04636">
        <ele>163.72119140625</ele>
        <time>2011-09-28T10:20:25Z</time>
      </trkpt>
      <trkpt lat="43.60847" lon="7.04636">
        <ele>164.40783691406</ele>
        <time>2011-09-28T10:20:26Z</time>
      </trkpt>
      <trkpt lat="43.60855" lon="7.04643">
        <ele>165.71421813965</ele>
        <time>2011-09-28T10:20:30Z</time>
      </trkpt>
      <trkpt lat="43.60864" lon="7.04656">
        <ele>165.84487915039</ele>
        <time>2011-09-28T10:20:34Z</time>
      </trkpt>
      <trkpt lat="43.60877" lon="7.04661">
        <ele>165.97190856934</ele>
        <time>2011-09-28T10:20:38Z</time>
      </trkpt>
      <trkpt lat="43.60891" lon="7.04657">
        <ele>166.73159790039</ele>
        <time>2011-09-28T10:20:41Z</time>
      </trkpt>
      <trkpt lat="43.60899" lon="7.04653">
        <ele>167.00282287598</ele>
        <time>2011-09-28T10:20:43Z</time>
      </trkpt>
      <trkpt lat="43.60908" lon="7.04647">
        <ele>167.41481018066</ele>
        <time>2011-09-28T10:20:45Z</time>
      </trkpt>
      <trkpt lat="43.60921" lon="7.04633">
        <ele>167.65213012695</ele>
        <time>2011-09-28T10:20:48Z</time>
      </trkpt>
      <trkpt lat="43.60927" lon="7.0462">
        <ele>167.4196472168</ele>
        <time>2011-09-28T10:20:50Z</time>
      </trkpt>
      <trkpt lat="43.60934" lon="7.04608">
        <ele>167.3233795166</ele>
        <time>2011-09-28T10:20:52Z</time>
      </trkpt>
      <trkpt lat="43.60962" lon="7.0459">
        <ele>163.77841186523</ele>
        <time>2011-09-28T10:20:57Z</time>
      </trkpt>
      <trkpt lat="43.60989" lon="7.0457">
        <ele>161.70498657227</ele>
        <time>2011-09-28T10:21:03Z</time>
      </trkpt>
      <trkpt lat="43.60999" lon="7.04564">
        <ele>160.83387756348</ele>
        <time>2011-09-28T10:21:05Z</time>
      </trkpt>
      <trkpt lat="43.61017" lon="7.04557">
        <ele>160.27185058594</ele>
        <time>2011-09-28T10:21:08Z</time>
      </trkpt>
      <trkpt lat="43.61023" lon="7.04556">
        <ele>160.15982055664</ele>
        <time>2011-09-28T10:21:09Z</time>
      </trkpt>
      <trkpt lat="43.6103" lon="7.04553">
        <ele>160.15277099609</ele>
        <time>2011-09-28T10:21:10Z</time>
      </trkpt>
      <trkpt lat="43.61048" lon="7.04542">
        <ele>160.86518859863</ele>
        <time>2011-09-28T10:21:13Z</time>
      </trkpt>
      <trkpt lat="43.6107" lon="7.04531">
        <ele>160.47094726562</ele>
        <time>2011-09-28T10:21:16Z</time>
      </trkpt>
      <trkpt lat="43.61077" lon="7.04531">
        <ele>160.22375488281</ele>
        <time>2011-09-28T10:21:17Z</time>
      </trkpt>
      <trkpt lat="43.61089" lon="7.04545">
        <ele>160</ele>
        <time>2011-09-28T10:21:20Z</time>
      </trkpt>
      <trkpt lat="43.61089" lon="7.04569">
        <ele>160</ele>
        <time>2011-09-28T10:21:23Z</time>
      </trkpt>
      <trkpt lat="43.61084" lon="7.04596">
        <ele>160</ele>
        <time>2011-09-28T10:21:26Z</time>
      </trkpt>
      <trkpt lat="43.61086" lon="7.04607">
        <ele>160</ele>
        <time>2011-09-28T10:21:27Z</time>
      </trkpt>
      <trkpt lat="43.61085" lon="7.04615">
        <ele>160</ele>
        <time>2011-09-28T10:21:28Z</time>
      </trkpt>
      <trkpt lat="43.61087" lon="7.04657">
        <ele>158.91809082031</ele>
        <time>2011-09-28T10:21:32Z</time>
      </trkpt>
      <trkpt lat="43.61089" lon="7.04665">
        <ele>158.44918823242</ele>
        <time>2011-09-28T10:21:33Z</time>
      </trkpt>
      <trkpt lat="43.61089" lon="7.04679">
        <ele>156.96328735352</ele>
        <time>2011-09-28T10:21:35Z</time>
      </trkpt>
      <trkpt lat="43.61089" lon="7.04693">
        <ele>155.42686462402</ele>
        <time>2011-09-28T10:21:37Z</time>
      </trkpt>
      <trkpt lat="43.61091" lon="7.04698">
        <ele>155.34100341797</ele>
        <time>2011-09-28T10:21:38Z</time>
      </trkpt>
      <trkpt lat="43.61097" lon="7.04705">
        <ele>156.24737548828</ele>
        <time>2011-09-28T10:21:40Z</time>
      </trkpt>
      <trkpt lat="43.61107" lon="7.04706">
        <ele>158.25238037109</ele>
        <time>2011-09-28T10:21:43Z</time>
      </trkpt>
      <trkpt lat="43.6111" lon="7.04708">
        <ele>158.68496704102</ele>
        <time>2011-09-28T10:21:44Z</time>
      </trkpt>
      <trkpt lat="43.61113" lon="7.04708">
        <ele>159.05310058594</ele>
        <time>2011-09-28T10:21:45Z</time>
      </trkpt>
      <trkpt lat="43.61119" lon="7.04709">
        <ele>159.24256896973</ele>
        <time>2011-09-28T10:21:47Z</time>
      </trkpt>
      <trkpt lat="43.61143" lon="7.04714">
        <ele>160</ele>
        <time>2011-09-28T10:21:53Z</time>
      </trkpt>
      <trkpt lat="43.61155" lon="7.04719">
        <ele>160</ele>
        <time>2011-09-28T10:21:56Z</time>
      </trkpt>
      <trkpt lat="43.61162" lon="7.0472">
        <ele>160</ele>
        <time>2011-09-28T10:21:58Z</time>
      </trkpt>
      <trkpt lat="43.61179" lon="7.04721">
        <ele>160</ele>
        <time>2011-09-28T10:22:03Z</time>
      </trkpt>
      <trkpt lat="43.61192" lon="7.04723">
        <ele>159.96253967285</ele>
        <time>2011-09-28T10:22:07Z</time>
      </trkpt>
      <trkpt lat="43.61204" lon="7.04717">
        <ele>159.72035217285</ele>
        <time>2011-09-28T10:22:12Z</time>
      </trkpt>
      <trkpt lat="43.61218" lon="7.04703">
        <ele>159.74746704102</ele>
        <time>2011-09-28T10:22:18Z</time>
      </trkpt>
      <trkpt lat="43.61232" lon="7.04688">
        <ele>158.71182250977</ele>
        <time>2011-09-28T10:22:24Z</time>
      </trkpt>
      <trkpt lat="43.6125" lon="7.04682">
        <ele>156.8896484375</ele>
        <time>2011-09-28T10:22:30Z</time>
      </trkpt>
      <trkpt lat="43.61251" lon="7.04685">
        <ele>156.3996887207</ele>
        <time>2011-09-28T10:22:34Z</time>
      </trkpt>
      <trkpt lat="43.61253" lon="7.04693">
        <ele>155.25610351562</ele>
        <time>2011-09-28T10:22:39Z</time>
      </trkpt>
      <trkpt lat="43.61259" lon="7.04691">
        <ele>153.92646789551</ele>
        <time>2011-09-28T10:22:44Z</time>
      </trkpt>
      <trkpt lat="43.61271" lon="7.04689">
        <ele>151.08285522461</ele>
        <time>2011-09-28T10:22:48Z</time>
      </trkpt>
      <trkpt lat="43.61274" lon="7.04688">
        <ele>150.13433837891</ele>
        <time>2011-09-28T10:22:49Z</time>
      </trkpt>
      <trkpt lat="43.613" lon="7.0468">
        <ele>147.96130371094</ele>
        <time>2011-09-28T10:22:55Z</time>
      </trkpt>
      <trkpt lat="43.61312" lon="7.04675">
        <ele>146.65246582031</ele>
        <time>2011-09-28T10:22:58Z</time>
      </trkpt>
      <trkpt lat="43.61318" lon="7.04664">
        <ele>145.72277832031</ele>
        <time>2011-09-28T10:23:03Z</time>
      </trkpt>
      <trkpt lat="43.6132" lon="7.04659">
        <ele>145.37945556641</ele>
        <time>2011-09-28T10:23:05Z</time>
      </trkpt>
      <trkpt lat="43.61323" lon="7.04651">
        <ele>144.89880371094</ele>
        <time>2011-09-28T10:23:08Z</time>
      </trkpt>
      <trkpt lat="43.61324" lon="7.04643">
        <ele>144.69281005859</ele>
        <time>2011-09-28T10:23:12Z</time>
      </trkpt>
      <trkpt lat="43.61324" lon="7.04641">
        <ele>144.62414550781</ele>
        <time>2011-09-28T10:23:13Z</time>
      </trkpt>
      <trkpt lat="43.61325" lon="7.04629">
        <ele>144.31948852539</ele>
        <time>2011-09-28T10:23:17Z</time>
      </trkpt>
      <trkpt lat="43.61325" lon="7.04626">
        <ele>144.0891418457</ele>
        <time>2011-09-28T10:23:18Z</time>
      </trkpt>
      <trkpt lat="43.61331" lon="7.04602">
        <ele>142.57771301269</ele>
        <time>2011-09-28T10:23:23Z</time>
      </trkpt>
      <trkpt lat="43.61337" lon="7.04581">
        <ele>141.81019592285</ele>
        <time>2011-09-28T10:23:28Z</time>
      </trkpt>
      <trkpt lat="43.61333" lon="7.04562">
        <ele>141.41328430176</ele>
        <time>2011-09-28T10:23:33Z</time>
      </trkpt>
      <trkpt lat="43.61331" lon="7.0453">
        <ele>141.62109375</ele>
        <time>2011-09-28T10:23:38Z</time>
      </trkpt>
      <trkpt lat="43.61333" lon="7.04497">
        <ele>141.0867767334</ele>
        <time>2011-09-28T10:23:42Z</time>
      </trkpt>
      <trkpt lat="43.61334" lon="7.04479">
        <ele>141.68377685547</ele>
        <time>2011-09-28T10:23:44Z</time>
      </trkpt>
      <trkpt lat="43.61335" lon="7.04475">
        <ele>141.74578857422</ele>
        <time>2011-09-28T10:23:45Z</time>
      </trkpt>
      <trkpt lat="43.6134" lon="7.0446">
        <ele>141.62049865723</ele>
        <time>2011-09-28T10:23:49Z</time>
      </trkpt>
      <trkpt lat="43.6134" lon="7.04456">
        <ele>141.71987915039</ele>
        <time>2011-09-28T10:23:50Z</time>
      </trkpt>
      <trkpt lat="43.61342" lon="7.04436">
        <ele>141.97087097168</ele>
        <time>2011-09-28T10:23:55Z</time>
      </trkpt>
      <trkpt lat="43.61347" lon="7.04421">
        <ele>141.43309020996</ele>
        <time>2011-09-28T10:24:01Z</time>
      </trkpt>
      <trkpt lat="43.61343" lon="7.0442">
        <ele>142.12103271484</ele>
        <time>2011-09-28T10:24:09Z</time>
      </trkpt>
      <trkpt lat="43.61344" lon="7.04421">
        <ele>141.94897460938</ele>
        <time>2011-09-28T10:24:15Z</time>
      </trkpt>
      <trkpt lat="43.61343" lon="7.04421">
        <ele>142.08160400391</ele>
        <time>2011-09-28T10:24:24Z</time>
      </trkpt>
      <trkpt lat="43.61343" lon="7.04422">
        <ele>142.14343261719</ele>
        <time>2011-09-28T10:24:28Z</time>
      </trkpt>
      <trkpt lat="43.61341" lon="7.0442">
        <ele>142.44470214844</ele>
        <time>2011-09-28T10:24:37Z</time>
      </trkpt>
      <trkpt lat="43.61343" lon="7.04411">
        <ele>142.38963317871</ele>
        <time>2011-09-28T10:24:40Z</time>
      </trkpt>
      <trkpt lat="43.61343" lon="7.04408">
        <ele>142.38725280762</ele>
        <time>2011-09-28T10:24:41Z</time>
      </trkpt>
      <trkpt lat="43.61349" lon="7.04394">
        <ele>141.43148803711</ele>
        <time>2011-09-28T10:24:45Z</time>
      </trkpt>
      <trkpt lat="43.61361" lon="7.04375">
        <ele>139.62704467773</ele>
        <time>2011-09-28T10:24:49Z</time>
      </trkpt>
      <trkpt lat="43.61367" lon="7.04359">
        <ele>140</ele>
        <time>2011-09-28T10:24:53Z</time>
      </trkpt>
      <trkpt lat="43.61379" lon="7.04334">
        <ele>140</ele>
        <time>2011-09-28T10:24:58Z</time>
      </trkpt>
      <trkpt lat="43.61385" lon="7.04323">
        <ele>140</ele>
        <time>2011-09-28T10:25:00Z</time>
      </trkpt>
      <trkpt lat="43.61392" lon="7.04321">
        <ele>140</ele>
        <time>2011-09-28T10:25:02Z</time>
      </trkpt>
      <trkpt lat="43.61399" lon="7.04316">
        <ele>140</ele>
        <time>2011-09-28T10:25:04Z</time>
      </trkpt>
      <trkpt lat="43.61408" lon="7.04304">
        <ele>140</ele>
        <time>2011-09-28T10:25:07Z</time>
      </trkpt>
      <trkpt lat="43.61412" lon="7.04299">
        <ele>140</ele>
        <time>2011-09-28T10:25:08Z</time>
      </trkpt>
      <trkpt lat="43.61428" lon="7.04278">
        <ele>140</ele>
        <time>2011-09-28T10:25:12Z</time>
      </trkpt>
      <trkpt lat="43.61444" lon="7.04262">
        <ele>140</ele>
        <time>2011-09-28T10:25:16Z</time>
      </trkpt>
      <trkpt lat="43.61448" lon="7.04258">
        <ele>140</ele>
        <time>2011-09-28T10:25:17Z</time>
      </trkpt>
      <trkpt lat="43.61457" lon="7.04249">
        <ele>140</ele>
        <time>2011-09-28T10:25:20Z</time>
      </trkpt>
      <trkpt lat="43.61457" lon="7.04247">
        <ele>140</ele>
        <time>2011-09-28T10:25:23Z</time>
      </trkpt>
      <trkpt lat="43.61457" lon="7.04246">
        <ele>140</ele>
        <time>2011-09-28T10:25:24Z</time>
      </trkpt>
      <trkpt lat="43.61462" lon="7.0424">
        <ele>140</ele>
        <time>2011-09-28T10:25:27Z</time>
      </trkpt>
      <trkpt lat="43.61464" lon="7.04237">
        <ele>140</ele>
        <time>2011-09-28T10:25:28Z</time>
      </trkpt>
      <trkpt lat="43.61473" lon="7.0422">
        <ele>140</ele>
        <time>2011-09-28T10:25:32Z</time>
      </trkpt>
      <trkpt lat="43.6149" lon="7.04188">
        <ele>140</ele>
        <time>2011-09-28T10:25:38Z</time>
      </trkpt>
      <trkpt lat="43.61507" lon="7.04165">
        <ele>140</ele>
        <time>2011-09-28T10:25:43Z</time>
      </trkpt>
      <trkpt lat="43.6151" lon="7.04163">
        <ele>140</ele>
        <time>2011-09-28T10:25:44Z</time>
      </trkpt>
      <trkpt lat="43.61514" lon="7.04164">
        <ele>140</ele>
        <time>2011-09-28T10:25:46Z</time>
      </trkpt>
      <trkpt lat="43.61518" lon="7.04166">
        <ele>140</ele>
        <time>2011-09-28T10:25:51Z</time>
      </trkpt>
      <trkpt lat="43.61538" lon="7.04187">
        <ele>140</ele>
        <time>2011-09-28T10:25:55Z</time>
      </trkpt>
      <trkpt lat="43.61539" lon="7.04194">
        <ele>140</ele>
        <time>2011-09-28T10:25:56Z</time>
      </trkpt>
      <trkpt lat="43.61534" lon="7.04209">
        <ele>140</ele>
        <time>2011-09-28T10:25:59Z</time>
      </trkpt>
      <trkpt lat="43.61535" lon="7.04212">
        <ele>140</ele>
        <time>2011-09-28T10:26:00Z</time>
      </trkpt>
      <trkpt lat="43.6154" lon="7.04218">
        <ele>140</ele>
        <time>2011-09-28T10:26:02Z</time>
      </trkpt>
      <trkpt lat="43.61537" lon="7.04231">
        <ele>140</ele>
        <time>2011-09-28T10:26:06Z</time>
      </trkpt>
      <trkpt lat="43.61536" lon="7.04235">
        <ele>140</ele>
        <time>2011-09-28T10:26:07Z</time>
      </trkpt>
      <trkpt lat="43.61528" lon="7.04255">
        <ele>140</ele>
        <time>2011-09-28T10:26:14Z</time>
      </trkpt>
      <trkpt lat="43.61521" lon="7.04271">
        <ele>140</ele>
        <time>2011-09-28T10:26:20Z</time>
      </trkpt>
      <trkpt lat="43.61512" lon="7.04288">
        <ele>140</ele>
        <time>2011-09-28T10:26:28Z</time>
      </trkpt>
      <trkpt lat="43.615" lon="7.04301">
        <ele>140</ele>
        <time>2011-09-28T10:26:35Z</time>
      </trkpt>
      <trkpt lat="43.61491" lon="7.0431">
        <ele>140</ele>
        <time>2011-09-28T10:26:40Z</time>
      </trkpt>
      <trkpt lat="43.6148" lon="7.04326">
        <ele>140</ele>
        <time>2011-09-28T10:26:47Z</time>
      </trkpt>
      <trkpt lat="43.61473" lon="7.04338">
        <ele>140</ele>
        <time>2011-09-28T10:26:52Z</time>
      </trkpt>
      <trkpt lat="43.61472" lon="7.0434">
        <ele>140</ele>
        <time>2011-09-28T10:26:53Z</time>
      </trkpt>
      <trkpt lat="43.61462" lon="7.04352">
        <ele>140</ele>
        <time>2011-09-28T10:27:00Z</time>
      </trkpt>
      <trkpt lat="43.61452" lon="7.04366">
        <ele>139.81997680664</ele>
        <time>2011-09-28T10:27:07Z</time>
      </trkpt>
      <trkpt lat="43.61443" lon="7.04389">
        <ele>139.00802612305</ele>
        <time>2011-09-28T10:27:16Z</time>
      </trkpt>
      <trkpt lat="43.61433" lon="7.04411">
        <ele>139</ele>
        <time>2011-09-28T10:27:24Z</time>
      </trkpt>
      <trkpt lat="43.61423" lon="7.04438">
        <ele>139</ele>
        <time>2011-09-28T10:27:33Z</time>
      </trkpt>
      <trkpt lat="43.61417" lon="7.04461">
        <ele>139</ele>
        <time>2011-09-28T10:27:40Z</time>
      </trkpt>
      <trkpt lat="43.61414" lon="7.04479">
        <ele>139.25012207031</ele>
        <time>2011-09-28T10:27:46Z</time>
      </trkpt>
      <trkpt lat="43.61411" lon="7.04499">
        <ele>139.96250915527</ele>
        <time>2011-09-28T10:27:51Z</time>
      </trkpt>
      <trkpt lat="43.61413" lon="7.04504">
        <ele>140.11701965332</ele>
        <time>2011-09-28T10:27:53Z</time>
      </trkpt>
      <trkpt lat="43.61414" lon="7.04504">
        <ele>140.11662292481</ele>
        <time>2011-09-28T10:27:54Z</time>
      </trkpt>
      <trkpt lat="43.61421" lon="7.04493">
        <ele>139.88008117676</ele>
        <time>2011-09-28T10:27:58Z</time>
      </trkpt>
      <trkpt lat="43.61423" lon="7.04491">
        <ele>139.82415771484</ele>
        <time>2011-09-28T10:27:59Z</time>
      </trkpt>
      <trkpt lat="43.61427" lon="7.04478">
        <ele>139.29132080078</ele>
        <time>2011-09-28T10:28:03Z</time>
      </trkpt>
      <trkpt lat="43.61436" lon="7.04459">
        <ele>139</ele>
        <time>2011-09-28T10:28:10Z</time>
      </trkpt>
      <trkpt lat="43.61443" lon="7.04457">
        <ele>139</ele>
        <time>2011-09-28T10:28:14Z</time>
      </trkpt>
      <trkpt lat="43.61446" lon="7.04456">
        <ele>139</ele>
        <time>2011-09-28T10:28:15Z</time>
      </trkpt>
      <trkpt lat="43.61454" lon="7.04457">
        <ele>139</ele>
        <time>2011-09-28T10:28:20Z</time>
      </trkpt>
      <trkpt lat="43.61462" lon="7.04462">
        <ele>139</ele>
        <time>2011-09-28T10:28:25Z</time>
      </trkpt>
      <trkpt lat="43.61464" lon="7.04461">
        <ele>139</ele>
        <time>2011-09-28T10:28:28Z</time>
      </trkpt>
      <trkpt lat="43.61466" lon="7.04458">
        <ele>139</ele>
        <time>2011-09-28T10:28:30Z</time>
      </trkpt>
      <trkpt lat="43.61469" lon="7.04455">
        <ele>139</ele>
        <time>2011-09-28T10:28:36Z</time>
      </trkpt>
      <trkpt lat="43.61465" lon="7.04447">
        <ele>139</ele>
        <time>2011-09-28T10:29:00Z</time>
      </trkpt>
      <trkpt lat="43.61472" lon="7.04451">
        <ele>139</ele>
        <time>2011-09-28T10:29:32Z</time>
      </trkpt>
      <trkpt lat="43.61482" lon="7.04446">
        <ele>139</ele>
        <time>2011-09-28T10:29:36Z</time>
      </trkpt>
      <trkpt lat="43.61503" lon="7.04438">
        <ele>139</ele>
        <time>2011-09-28T10:29:40Z</time>
      </trkpt>
      <trkpt lat="43.61534" lon="7.04428">
        <ele>139</ele>
        <time>2011-09-28T10:29:45Z</time>
      </trkpt>
      <trkpt lat="43.6154" lon="7.04427">
        <ele>139</ele>
        <time>2011-09-28T10:29:46Z</time>
      </trkpt>
      <trkpt lat="43.61565" lon="7.0443">
        <ele>139</ele>
        <time>2011-09-28T10:29:50Z</time>
      </trkpt>
      <trkpt lat="43.61572" lon="7.04433">
        <ele>139</ele>
        <time>2011-09-28T10:29:51Z</time>
      </trkpt>
      <trkpt lat="43.61577" lon="7.04436">
        <ele>139</ele>
        <time>2011-09-28T10:29:52Z</time>
      </trkpt>
      <trkpt lat="43.61588" lon="7.04451">
        <ele>139</ele>
        <time>2011-09-28T10:29:55Z</time>
      </trkpt>
      <trkpt lat="43.61607" lon="7.04478">
        <ele>139</ele>
        <time>2011-09-28T10:29:59Z</time>
      </trkpt>
      <trkpt lat="43.61613" lon="7.04486">
        <ele>139</ele>
        <time>2011-09-28T10:30:00Z</time>
      </trkpt>
      <trkpt lat="43.61625" lon="7.04511">
        <ele>138.79656982422</ele>
        <time>2011-09-28T10:30:03Z</time>
      </trkpt>
      <trkpt lat="43.6163" lon="7.04519">
        <ele>138.5350189209</ele>
        <time>2011-09-28T10:30:04Z</time>
      </trkpt>
      <trkpt lat="43.61644" lon="7.04546">
        <ele>138.52656555176</ele>
        <time>2011-09-28T10:30:07Z</time>
      </trkpt>
      <trkpt lat="43.61648" lon="7.04555">
        <ele>138.66658020019</ele>
        <time>2011-09-28T10:30:08Z</time>
      </trkpt>
      <trkpt lat="43.61664" lon="7.0459">
        <ele>138.12850952148</ele>
        <time>2011-09-28T10:30:12Z</time>
      </trkpt>
      <trkpt lat="43.61684" lon="7.04631">
        <ele>138.25961303711</ele>
        <time>2011-09-28T10:30:17Z</time>
      </trkpt>
      <trkpt lat="43.61689" lon="7.04639">
        <ele>138.21411132812</ele>
        <time>2011-09-28T10:30:18Z</time>
      </trkpt>
      <trkpt lat="43.61699" lon="7.04667">
        <ele>138.85284423828</ele>
        <time>2011-09-28T10:30:21Z</time>
      </trkpt>
      <trkpt lat="43.61704" lon="7.04686">
        <ele>138.66058349609</ele>
        <time>2011-09-28T10:30:23Z</time>
      </trkpt>
      <trkpt lat="43.61708" lon="7.04713">
        <ele>138.50952148438</ele>
        <time>2011-09-28T10:30:26Z</time>
      </trkpt>
      <trkpt lat="43.61718" lon="7.04737">
        <ele>138.21037292481</ele>
        <time>2011-09-28T10:30:29Z</time>
      </trkpt>
      <trkpt lat="43.61731" lon="7.04765">
        <ele>137.37109375</ele>
        <time>2011-09-28T10:30:33Z</time>
      </trkpt>
      <trkpt lat="43.61736" lon="7.04798">
        <ele>137.04150390625</ele>
        <time>2011-09-28T10:30:37Z</time>
      </trkpt>
      <trkpt lat="43.61736" lon="7.04805">
        <ele>137.01403808594</ele>
        <time>2011-09-28T10:30:38Z</time>
      </trkpt>
      <trkpt lat="43.61734" lon="7.04812">
        <ele>137.1513671875</ele>
        <time>2011-09-28T10:30:39Z</time>
      </trkpt>
      <trkpt lat="43.61733" lon="7.04822">
        <ele>137.20629882812</ele>
        <time>2011-09-28T10:30:41Z</time>
      </trkpt>
      <trkpt lat="43.61735" lon="7.04823">
        <ele>137.06896972656</ele>
        <time>2011-09-28T10:30:42Z</time>
      </trkpt>
      <trkpt lat="43.6174" lon="7.04821">
        <ele>136.73937988281</ele>
        <time>2011-09-28T10:30:44Z</time>
      </trkpt>
      <trkpt lat="43.61757" lon="7.04818">
        <ele>134.16583251953</ele>
        <time>2011-09-28T10:30:50Z</time>
      </trkpt>
      <trkpt lat="43.61772" lon="7.04819">
        <ele>130.51287841797</ele>
        <time>2011-09-28T10:30:55Z</time>
      </trkpt>
      <trkpt lat="43.61772" lon="7.04818">
        <ele>130.51287841797</ele>
        <time>2011-09-28T10:30:58Z</time>
      </trkpt>
      <trkpt lat="43.6178" lon="7.04818">
        <ele>128.60627746582</ele>
        <time>2011-09-28T10:31:02Z</time>
      </trkpt>
      <trkpt lat="43.61788" lon="7.04817">
        <ele>126.97624969482</ele>
        <time>2011-09-28T10:31:06Z</time>
      </trkpt>
      <trkpt lat="43.6179" lon="7.04814">
        <ele>126.71691131592</ele>
        <time>2011-09-28T10:31:07Z</time>
      </trkpt>
      <trkpt lat="43.61798" lon="7.04806">
        <ele>125.40257263184</ele>
        <time>2011-09-28T10:31:11Z</time>
      </trkpt>
      <trkpt lat="43.61798" lon="7.04813">
        <ele>125.14288330078</ele>
        <time>2011-09-28T10:31:14Z</time>
      </trkpt>
      <trkpt lat="43.618" lon="7.04817">
        <ele>124.59522247315</ele>
        <time>2011-09-28T10:31:17Z</time>
      </trkpt>
      <trkpt lat="43.61803" lon="7.04831">
        <ele>123.54711151123</ele>
        <time>2011-09-28T10:31:21Z</time>
      </trkpt>
      <trkpt lat="43.61803" lon="7.04844">
        <ele>123.16481781006</ele>
        <time>2011-09-28T10:31:26Z</time>
      </trkpt>
      <trkpt lat="43.61806" lon="7.0487">
        <ele>121.6675491333</ele>
        <time>2011-09-28T10:31:31Z</time>
      </trkpt>
      <trkpt lat="43.6181" lon="7.04892">
        <ele>120.75133514404</ele>
        <time>2011-09-28T10:31:36Z</time>
      </trkpt>
      <trkpt lat="43.61819" lon="7.04918">
        <ele>120</ele>
        <time>2011-09-28T10:31:41Z</time>
      </trkpt>
      <trkpt lat="43.61837" lon="7.04934">
        <ele>120</ele>
        <time>2011-09-28T10:31:45Z</time>
      </trkpt>
      <trkpt lat="43.61842" lon="7.04937">
        <ele>120</ele>
        <time>2011-09-28T10:31:46Z</time>
      </trkpt>
      <trkpt lat="43.61852" lon="7.04942">
        <ele>120</ele>
        <time>2011-09-28T10:31:49Z</time>
      </trkpt>
      <trkpt lat="43.61857" lon="7.04947">
        <ele>120</ele>
        <time>2011-09-28T10:31:51Z</time>
      </trkpt>
      <trkpt lat="43.6186" lon="7.04948">
        <ele>120</ele>
        <time>2011-09-28T10:31:52Z</time>
      </trkpt>
      <trkpt lat="43.61865" lon="7.04948">
        <ele>120</ele>
        <time>2011-09-28T10:31:53Z</time>
      </trkpt>
      <trkpt lat="43.61873" lon="7.0495">
        <ele>120</ele>
        <time>2011-09-28T10:31:55Z</time>
      </trkpt>
      <trkpt lat="43.61887" lon="7.04952">
        <ele>120</ele>
        <time>2011-09-28T10:31:57Z</time>
      </trkpt>
      <trkpt lat="43.61906" lon="7.04954">
        <ele>120.40840148926</ele>
        <time>2011-09-28T10:32:01Z</time>
      </trkpt>
      <trkpt lat="43.61921" lon="7.0495">
        <ele>120.78287506103</ele>
        <time>2011-09-28T10:32:04Z</time>
      </trkpt>
      <trkpt lat="43.61926" lon="7.04949">
        <ele>120.8240737915</ele>
        <time>2011-09-28T10:32:05Z</time>
      </trkpt>
      <trkpt lat="43.61933" lon="7.0495">
        <ele>120.79317474365</ele>
        <time>2011-09-28T10:32:06Z</time>
      </trkpt>
      <trkpt lat="43.61947" lon="7.04953">
        <ele>120.69704437256</ele>
        <time>2011-09-28T10:32:08Z</time>
      </trkpt>
      <trkpt lat="43.61961" lon="7.04953">
        <ele>120.69361114502</ele>
        <time>2011-09-28T10:32:11Z</time>
      </trkpt>
      <trkpt lat="43.61973" lon="7.04953">
        <ele>120.72052764893</ele>
        <time>2011-09-28T10:32:13Z</time>
      </trkpt>
      <trkpt lat="43.61992" lon="7.04962">
        <ele>120.65325927734</ele>
        <time>2011-09-28T10:32:16Z</time>
      </trkpt>
      <trkpt lat="43.61998" lon="7.04966">
        <ele>120.45671844482</ele>
        <time>2011-09-28T10:32:17Z</time>
      </trkpt>
      <trkpt lat="43.62004" lon="7.04968">
        <ele>120.30918884277</ele>
        <time>2011-09-28T10:32:18Z</time>
      </trkpt>
      <trkpt lat="43.6202" lon="7.04983">
        <ele>120</ele>
        <time>2011-09-28T10:32:21Z</time>
      </trkpt>
      <trkpt lat="43.62025" lon="7.04992">
        <ele>120</ele>
        <time>2011-09-28T10:32:23Z</time>
      </trkpt>
      <trkpt lat="43.62027" lon="7.04994">
        <ele>120</ele>
        <time>2011-09-28T10:32:24Z</time>
      </trkpt>
      <trkpt lat="43.62027" lon="7.04996">
        <ele>120</ele>
        <time>2011-09-28T10:32:25Z</time>
      </trkpt>
      <trkpt lat="43.62027" lon="7.04996">
        <ele>120</ele>
        <time>2011-09-28T10:32:28Z</time>
      </trkpt>
      <trkpt lat="43.62031" lon="7.05002">
        <ele>119.93511199951</ele>
        <time>2011-09-28T10:32:51Z</time>
      </trkpt>
      <trkpt lat="43.62037" lon="7.05004">
        <ele>119.89009857178</ele>
        <time>2011-09-28T10:32:53Z</time>
      </trkpt>
      <trkpt lat="43.62045" lon="7.05016">
        <ele>119.78972625732</ele>
        <time>2011-09-28T10:32:56Z</time>
      </trkpt>
      <trkpt lat="43.62054" lon="7.05034">
        <ele>119.74504852295</ele>
        <time>2011-09-28T10:33:00Z</time>
      </trkpt>
      <trkpt lat="43.62053" lon="7.05051">
        <ele>119.14459991455</ele>
        <time>2011-09-28T10:33:02Z</time>
      </trkpt>
      <trkpt lat="43.62053" lon="7.0507">
        <ele>118.49305725098</ele>
        <time>2011-09-28T10:33:04Z</time>
      </trkpt>
      <trkpt lat="43.62051" lon="7.05079">
        <ele>118.13943481445</ele>
        <time>2011-09-28T10:33:05Z</time>
      </trkpt>
      <trkpt lat="43.62046" lon="7.05109">
        <ele>117.69567871094</ele>
        <time>2011-09-28T10:33:08Z</time>
      </trkpt>
      <trkpt lat="43.62038" lon="7.05167">
        <ele>116</ele>
        <time>2011-09-28T10:33:14Z</time>
      </trkpt>
      <trkpt lat="43.62033" lon="7.05207">
        <ele>115.53204345703</ele>
        <time>2011-09-28T10:33:18Z</time>
      </trkpt>
      <trkpt lat="43.62029" lon="7.05269">
        <ele>114.0172958374</ele>
        <time>2011-09-28T10:33:24Z</time>
      </trkpt>
      <trkpt lat="43.62034" lon="7.053">
        <ele>113.20867919922</ele>
        <time>2011-09-28T10:33:27Z</time>
      </trkpt>
      <trkpt lat="43.62038" lon="7.05318">
        <ele>112.7147064209</ele>
        <time>2011-09-28T10:33:29Z</time>
      </trkpt>
      <trkpt lat="43.6204" lon="7.05335">
        <ele>112.41036224365</ele>
        <time>2011-09-28T10:33:31Z</time>
      </trkpt>
      <trkpt lat="43.6204" lon="7.05344">
        <ele>112.25762939453</ele>
        <time>2011-09-28T10:33:32Z</time>
      </trkpt>
      <trkpt lat="43.62041" lon="7.05359">
        <ele>112.03778839111</ele>
        <time>2011-09-28T10:33:34Z</time>
      </trkpt>
      <trkpt lat="43.62048" lon="7.05382">
        <ele>111.78337097168</ele>
        <time>2011-09-28T10:33:37Z</time>
      </trkpt>
      <trkpt lat="43.62049" lon="7.05389">
        <ele>111.76961517334</ele>
        <time>2011-09-28T10:33:38Z</time>
      </trkpt>
      <trkpt lat="43.62053" lon="7.05403">
        <ele>111.44482421875</ele>
        <time>2011-09-28T10:33:40Z</time>
      </trkpt>
      <trkpt lat="43.62059" lon="7.05415">
        <ele>111.3434677124</ele>
        <time>2011-09-28T10:33:42Z</time>
      </trkpt>
      <trkpt lat="43.62062" lon="7.05423">
        <ele>111.25685119629</ele>
        <time>2011-09-28T10:33:43Z</time>
      </trkpt>
      <trkpt lat="43.62064" lon="7.05437">
        <ele>111.10153961182</ele>
        <time>2011-09-28T10:33:45Z</time>
      </trkpt>
      <trkpt lat="43.62066" lon="7.05444">
        <ele>111.17631530762</ele>
        <time>2011-09-28T10:33:47Z</time>
      </trkpt>
      <trkpt lat="43.62067" lon="7.05443">
        <ele>111.30451965332</ele>
        <time>2011-09-28T10:33:48Z</time>
      </trkpt>
      <trkpt lat="43.62072" lon="7.05437">
        <ele>111.92817687988</ele>
        <time>2011-09-28T10:33:51Z</time>
      </trkpt>
      <trkpt lat="43.62075" lon="7.05435">
        <ele>112.24663543701</ele>
        <time>2011-09-28T10:33:52Z</time>
      </trkpt>
      <trkpt lat="43.62095" lon="7.05426">
        <ele>116.00567626953</ele>
        <time>2011-09-28T10:33:58Z</time>
      </trkpt>
      <trkpt lat="43.62113" lon="7.0543">
        <ele>120.30632019043</ele>
        <time>2011-09-28T10:34:02Z</time>
      </trkpt>
      <trkpt lat="43.62117" lon="7.05432">
        <ele>120.97441864014</ele>
        <time>2011-09-28T10:34:05Z</time>
      </trkpt>
      <trkpt lat="43.62123" lon="7.05434">
        <ele>122.11946868897</ele>
        <time>2011-09-28T10:34:13Z</time>
      </trkpt>
      <trkpt lat="43.62131" lon="7.05447">
        <ele>122.63088989258</ele>
        <time>2011-09-28T10:34:18Z</time>
      </trkpt>
      <trkpt lat="43.62138" lon="7.05473">
        <ele>120.89514160156</ele>
        <time>2011-09-28T10:34:23Z</time>
      </trkpt>
      <trkpt lat="43.62147" lon="7.05503">
        <ele>120.78923034668</ele>
        <time>2011-09-28T10:34:29Z</time>
      </trkpt>
      <trkpt lat="43.62153" lon="7.05512">
        <ele>120.87266540527</ele>
        <time>2011-09-28T10:34:31Z</time>
      </trkpt>
      <trkpt lat="43.62161" lon="7.0552">
        <ele>120.63134765625</ele>
        <time>2011-09-28T10:34:33Z</time>
      </trkpt>
      <trkpt lat="43.62164" lon="7.05526">
        <ele>120.20523834228</ele>
        <time>2011-09-28T10:34:34Z</time>
      </trkpt>
      <trkpt lat="43.6217" lon="7.05534">
        <ele>120</ele>
        <time>2011-09-28T10:34:36Z</time>
      </trkpt>
      <trkpt lat="43.62174" lon="7.05538">
        <ele>120</ele>
        <time>2011-09-28T10:34:37Z</time>
      </trkpt>
      <trkpt lat="43.62179" lon="7.05542">
        <ele>120</ele>
        <time>2011-09-28T10:34:40Z</time>
      </trkpt>
      <trkpt lat="43.62184" lon="7.05544">
        <ele>120</ele>
        <time>2011-09-28T10:34:43Z</time>
      </trkpt>
      <trkpt lat="43.62185" lon="7.05545">
        <ele>120</ele>
        <time>2011-09-28T10:34:45Z</time>
      </trkpt>
      <trkpt lat="43.62196" lon="7.05556">
        <ele>120</ele>
        <time>2011-09-28T10:34:49Z</time>
      </trkpt>
      <trkpt lat="43.62208" lon="7.05571">
        <ele>120</ele>
        <time>2011-09-28T10:34:54Z</time>
      </trkpt>
      <trkpt lat="43.6221" lon="7.0557">
        <ele>120</ele>
        <time>2011-09-28T10:34:55Z</time>
      </trkpt>
      <trkpt lat="43.62215" lon="7.05566">
        <ele>120</ele>
        <time>2011-09-28T10:34:57Z</time>
      </trkpt>
      <trkpt lat="43.62226" lon="7.0556">
        <ele>120</ele>
        <time>2011-09-28T10:35:02Z</time>
      </trkpt>
      <trkpt lat="43.62232" lon="7.05554">
        <ele>120</ele>
        <time>2011-09-28T10:35:05Z</time>
      </trkpt>
      <trkpt lat="43.62235" lon="7.05549">
        <ele>120</ele>
        <time>2011-09-28T10:35:07Z</time>
      </trkpt>
      <trkpt lat="43.62239" lon="7.05541">
        <ele>120</ele>
        <time>2011-09-28T10:35:12Z</time>
      </trkpt>
      <trkpt lat="43.62239" lon="7.0554">
        <ele>120</ele>
        <time>2011-09-28T10:35:13Z</time>
      </trkpt>
      <trkpt lat="43.62234" lon="7.0553">
        <ele>120</ele>
        <time>2011-09-28T10:35:17Z</time>
      </trkpt>
      <trkpt lat="43.62232" lon="7.05526">
        <ele>120.23948669434</ele>
        <time>2011-09-28T10:35:18Z</time>
      </trkpt>
      <trkpt lat="43.62222" lon="7.05516">
        <ele>122.05051422119</ele>
        <time>2011-09-28T10:35:23Z</time>
      </trkpt>
      <trkpt lat="43.62219" lon="7.05516">
        <ele>122.04193115234</ele>
        <time>2011-09-28T10:35:24Z</time>
      </trkpt>
      <trkpt lat="43.62212" lon="7.05512">
        <ele>122.79724121094</ele>
        <time>2011-09-28T10:35:27Z</time>
      </trkpt>
      <trkpt lat="43.62206" lon="7.0551">
        <ele>123.14056396484</ele>
        <time>2011-09-28T10:35:29Z</time>
      </trkpt>
      <trkpt lat="43.62202" lon="7.05511">
        <ele>122.96890258789</ele>
        <time>2011-09-28T10:35:30Z</time>
      </trkpt>
      <trkpt lat="43.62196" lon="7.05512">
        <ele>122.81440734863</ele>
        <time>2011-09-28T10:35:32Z</time>
      </trkpt>
      <trkpt lat="43.62189" lon="7.05503">
        <ele>124.13394165039</ele>
        <time>2011-09-28T10:35:35Z</time>
      </trkpt>
      <trkpt lat="43.62186" lon="7.055">
        <ele>124.44361114502</ele>
        <time>2011-09-28T10:35:36Z</time>
      </trkpt>
      <trkpt lat="43.62176" lon="7.05484">
        <ele>124.9928894043</ele>
        <time>2011-09-28T10:35:40Z</time>
      </trkpt>
      <trkpt lat="43.62165" lon="7.05463">
        <ele>125.74240112305</ele>
        <time>2011-09-28T10:35:45Z</time>
      </trkpt>
      <trkpt lat="43.62151" lon="7.05434">
        <ele>126.5771560669</ele>
        <time>2011-09-28T10:35:50Z</time>
      </trkpt>
      <trkpt lat="43.62147" lon="7.05428">
        <ele>126.57337188721</ele>
        <time>2011-09-28T10:35:51Z</time>
      </trkpt>
      <trkpt lat="43.62132" lon="7.05413">
        <ele>124.49443817139</ele>
        <time>2011-09-28T10:35:54Z</time>
      </trkpt>
      <trkpt lat="43.62127" lon="7.05408">
        <ele>123.50427246094</ele>
        <time>2011-09-28T10:35:55Z</time>
      </trkpt>
      <trkpt lat="43.62111" lon="7.05395">
        <ele>120.04187011719</ele>
        <time>2011-09-28T10:35:58Z</time>
      </trkpt>
      <trkpt lat="43.62099" lon="7.05372">
        <ele>117.40026855469</ele>
        <time>2011-09-28T10:36:02Z</time>
      </trkpt>
      <trkpt lat="43.62095" lon="7.05344">
        <ele>116.60007476807</ele>
        <time>2011-09-28T10:36:07Z</time>
      </trkpt>
      <trkpt lat="43.62094" lon="7.05338">
        <ele>116.57267761231</ele>
        <time>2011-09-28T10:36:08Z</time>
      </trkpt>
      <trkpt lat="43.62093" lon="7.05328">
        <ele>116.3330078125</ele>
        <time>2011-09-28T10:36:10Z</time>
      </trkpt>
      <trkpt lat="43.6209" lon="7.0531">
        <ele>116.00341796875</ele>
        <time>2011-09-28T10:36:13Z</time>
      </trkpt>
      <trkpt lat="43.6209" lon="7.053">
        <ele>116.10051727295</ele>
        <time>2011-09-28T10:36:15Z</time>
      </trkpt>
      <trkpt lat="43.62091" lon="7.05288">
        <ele>116.69618225098</ele>
        <time>2011-09-28T10:36:18Z</time>
      </trkpt>
      <trkpt lat="43.62092" lon="7.05277">
        <ele>117.27312469482</ele>
        <time>2011-09-28T10:36:21Z</time>
      </trkpt>
      <trkpt lat="43.62093" lon="7.05269">
        <ele>117.28428649902</ele>
        <time>2011-09-28T10:36:23Z</time>
      </trkpt>
      <trkpt lat="43.62094" lon="7.05263">
        <ele>117.38963317871</ele>
        <time>2011-09-28T10:36:25Z</time>
      </trkpt>
      <trkpt lat="43.62099" lon="7.05245">
        <ele>117.73987579346</ele>
        <time>2011-09-28T10:36:30Z</time>
      </trkpt>
      <trkpt lat="43.62104" lon="7.05228">
        <ele>118.43534851074</ele>
        <time>2011-09-28T10:36:35Z</time>
      </trkpt>
      <trkpt lat="43.62106" lon="7.05206">
        <ele>118.6552734375</ele>
        <time>2011-09-28T10:36:41Z</time>
      </trkpt>
      <trkpt lat="43.62112" lon="7.05179">
        <ele>119.82943725586</ele>
        <time>2011-09-28T10:36:49Z</time>
      </trkpt>
      <trkpt lat="43.62119" lon="7.05167">
        <ele>121.39873504639</ele>
        <time>2011-09-28T10:36:54Z</time>
      </trkpt>
      <trkpt lat="43.62119" lon="7.05166">
        <ele>121.3955078125</ele>
        <time>2011-09-28T10:36:58Z</time>
      </trkpt>
      <trkpt lat="43.62121" lon="7.05161">
        <ele>121.73576354981</ele>
        <time>2011-09-28T10:37:03Z</time>
      </trkpt>
      <trkpt lat="43.62121" lon="7.05156">
        <ele>121.61614227295</ele>
        <time>2011-09-28T10:37:07Z</time>
      </trkpt>
      <trkpt lat="43.62122" lon="7.05147">
        <ele>121.72853851318</ele>
        <time>2011-09-28T10:37:15Z</time>
      </trkpt>
      <trkpt lat="43.62127" lon="7.05142">
        <ele>122.33322143555</ele>
        <time>2011-09-28T10:37:23Z</time>
      </trkpt>
      <trkpt lat="43.62127" lon="7.05138">
        <ele>122.36443328857</ele>
        <time>2011-09-28T10:37:26Z</time>
      </trkpt>
      <trkpt lat="43.62127" lon="7.05133">
        <ele>122.45899963379</ele>
        <time>2011-09-28T10:37:30Z</time>
      </trkpt>
      <trkpt lat="43.62127" lon="7.05133">
        <ele>122.53542327881</ele>
        <time>2011-09-28T10:37:31Z</time>
      </trkpt>
      <trkpt lat="43.62127" lon="7.05134">
        <ele>122.49047851562</ele>
        <time>2011-09-28T10:37:35Z</time>
      </trkpt>
      <trkpt lat="43.6213" lon="7.05124">
        <ele>123.37021636963</ele>
        <time>2011-09-28T10:39:14Z</time>
      </trkpt>
      <trkpt lat="43.62135" lon="7.05105">
        <ele>125.53360748291</ele>
        <time>2011-09-28T10:39:19Z</time>
      </trkpt>
      <trkpt lat="43.62134" lon="7.0509">
        <ele>126.2228012085</ele>
        <time>2011-09-28T10:39:23Z</time>
      </trkpt>
      <trkpt lat="43.62134" lon="7.05086">
        <ele>126.48215484619</ele>
        <time>2011-09-28T10:39:24Z</time>
      </trkpt>
      <trkpt lat="43.62132" lon="7.05077">
        <ele>126.82939147949</ele>
        <time>2011-09-28T10:39:26Z</time>
      </trkpt>
      <trkpt lat="43.62133" lon="7.05068">
        <ele>127.89197540283</ele>
        <time>2011-09-28T10:39:29Z</time>
      </trkpt>
      <trkpt lat="43.62134" lon="7.05066">
        <ele>128.51681518555</ele>
        <time>2011-09-28T10:39:30Z</time>
      </trkpt>
      <trkpt lat="43.62137" lon="7.0505">
        <ele>131.00473022461</ele>
        <time>2011-09-28T10:39:35Z</time>
      </trkpt>
      <trkpt lat="43.6213" lon="7.05035">
        <ele>130.79385375977</ele>
        <time>2011-09-28T10:39:39Z</time>
      </trkpt>
      <trkpt lat="43.62117" lon="7.05018">
        <ele>129.27867126465</ele>
        <time>2011-09-28T10:39:43Z</time>
      </trkpt>
      <trkpt lat="43.62115" lon="7.05008">
        <ele>129.29927062988</ele>
        <time>2011-09-28T10:39:45Z</time>
      </trkpt>
      <trkpt lat="43.6211" lon="7.05002">
        <ele>128.51992797852</ele>
        <time>2011-09-28T10:39:47Z</time>
      </trkpt>
      <trkpt lat="43.62106" lon="7.05003">
        <ele>127.59638977051</ele>
        <time>2011-09-28T10:39:48Z</time>
      </trkpt>
      <trkpt lat="43.62104" lon="7.05011">
        <ele>126.43939208984</ele>
        <time>2011-09-28T10:39:50Z</time>
      </trkpt>
      <trkpt lat="43.6211" lon="7.05011">
        <ele>127.88478088379</ele>
        <time>2011-09-28T10:39:53Z</time>
      </trkpt>
      <trkpt lat="43.62109" lon="7.05005">
        <ele>128.08734130859</ele>
        <time>2011-09-28T10:39:56Z</time>
      </trkpt>
      <trkpt lat="43.6211" lon="7.05013">
        <ele>127.68908691406</ele>
        <time>2011-09-28T10:39:59Z</time>
      </trkpt>
      <trkpt lat="43.62113" lon="7.05011">
        <ele>128.66755676269</ele>
        <time>2011-09-28T10:40:02Z</time>
      </trkpt>
      <trkpt lat="43.6211" lon="7.05012">
        <ele>127.91567993164</ele>
        <time>2011-09-28T10:40:05Z</time>
      </trkpt>
      <trkpt lat="43.62113" lon="7.05012">
        <ele>128.54052734375</ele>
        <time>2011-09-28T10:40:08Z</time>
      </trkpt>
      <trkpt lat="43.62112" lon="7.0501">
        <ele>128.44783020019</ele>
        <time>2011-09-28T10:40:12Z</time>
      </trkpt>
      <trkpt lat="43.62105" lon="7.05011">
        <ele>126.60762023926</ele>
        <time>2011-09-28T10:40:15Z</time>
      </trkpt>
      <trkpt lat="43.62103" lon="7.04998">
        <ele>127.29628753662</ele>
        <time>2011-09-28T10:40:18Z</time>
      </trkpt>
      <trkpt lat="43.62103" lon="7.04994">
        <ele>127.85790252685</ele>
        <time>2011-09-28T10:40:19Z</time>
      </trkpt>
      <trkpt lat="43.621" lon="7.04973">
        <ele>129.73358154297</ele>
        <time>2011-09-28T10:40:24Z</time>
      </trkpt>
      <trkpt lat="43.62101" lon="7.04966">
        <ele>131.03784179688</ele>
        <time>2011-09-28T10:40:26Z</time>
      </trkpt>
      <trkpt lat="43.62103" lon="7.04957">
        <ele>132.86431884766</ele>
        <time>2011-09-28T10:40:28Z</time>
      </trkpt>
      <trkpt lat="43.62104" lon="7.04948">
        <ele>134.49166870117</ele>
        <time>2011-09-28T10:40:30Z</time>
      </trkpt>
      <trkpt lat="43.62106" lon="7.04937">
        <ele>136.13784790039</ele>
        <time>2011-09-28T10:40:32Z</time>
      </trkpt>
      <trkpt lat="43.62107" lon="7.04926">
        <ele>137.18154907227</ele>
        <time>2011-09-28T10:40:36Z</time>
      </trkpt>
      <trkpt lat="43.62109" lon="7.04937">
        <ele>136.81762695312</ele>
        <time>2011-09-28T10:40:39Z</time>
      </trkpt>
      <trkpt lat="43.62116" lon="7.04958">
        <ele>135.90344238281</ele>
        <time>2011-09-28T10:40:44Z</time>
      </trkpt>
      <trkpt lat="43.62121" lon="7.0496">
        <ele>136.65193176269</ele>
        <time>2011-09-28T10:40:46Z</time>
      </trkpt>
      <trkpt lat="43.62126" lon="7.04957">
        <ele>137.79060363769</ele>
        <time>2011-09-28T10:40:47Z</time>
      </trkpt>
      <trkpt lat="43.62131" lon="7.04942">
        <ele>139.9383392334</ele>
        <time>2011-09-28T10:40:50Z</time>
      </trkpt>
      <trkpt lat="43.62129" lon="7.0493">
        <ele>140.26588439941</ele>
        <time>2011-09-28T10:40:52Z</time>
      </trkpt>
      <trkpt lat="43.62128" lon="7.0492">
        <ele>140.64750671387</ele>
        <time>2011-09-28T10:40:54Z</time>
      </trkpt>
      <trkpt lat="43.62125" lon="7.04902">
        <ele>141.2448425293</ele>
        <time>2011-09-28T10:40:59Z</time>
      </trkpt>
      <trkpt lat="43.62123" lon="7.04889">
        <ele>141.83476257324</ele>
        <time>2011-09-28T10:41:05Z</time>
      </trkpt>
      <trkpt lat="43.62123" lon="7.04881">
        <ele>142.12371826172</ele>
        <time>2011-09-28T10:41:10Z</time>
      </trkpt>
      <trkpt lat="43.62122" lon="7.0488">
        <ele>142.07565307617</ele>
        <time>2011-09-28T10:41:12Z</time>
      </trkpt>
      <trkpt lat="43.62121" lon="7.0488">
        <ele>142.04132080078</ele>
        <time>2011-09-28T10:41:16Z</time>
      </trkpt>
      <trkpt lat="43.62116" lon="7.04877">
        <ele>141.8095703125</ele>
        <time>2011-09-28T10:41:20Z</time>
      </trkpt>
      <trkpt lat="43.6211" lon="7.04866">
        <ele>141.62564086914</ele>
        <time>2011-09-28T10:41:24Z</time>
      </trkpt>
      <trkpt lat="43.6211" lon="7.04863">
        <ele>141.66955566406</ele>
        <time>2011-09-28T10:41:25Z</time>
      </trkpt>
      <trkpt lat="43.62098" lon="7.04854">
        <ele>140.13572692871</ele>
        <time>2011-09-28T10:41:29Z</time>
      </trkpt>
      <trkpt lat="43.6208" lon="7.04849">
        <ele>137.14053344727</ele>
        <time>2011-09-28T10:41:32Z</time>
      </trkpt>
      <trkpt lat="43.62073" lon="7.04848">
        <ele>135.19802856445</ele>
        <time>2011-09-28T10:41:33Z</time>
      </trkpt>
      <trkpt lat="43.62066" lon="7.04845">
        <ele>133.47329711914</ele>
        <time>2011-09-28T10:41:34Z</time>
      </trkpt>
      <trkpt lat="43.62054" lon="7.04837">
        <ele>130.42796325684</ele>
        <time>2011-09-28T10:41:36Z</time>
      </trkpt>
      <trkpt lat="43.62029" lon="7.04823">
        <ele>126.00593566894</ele>
        <time>2011-09-28T10:41:40Z</time>
      </trkpt>
      <trkpt lat="43.6202" lon="7.04821">
        <ele>125.90069580078</ele>
        <time>2011-09-28T10:41:42Z</time>
      </trkpt>
      <trkpt lat="43.62017" lon="7.04821">
        <ele>125.87322998047</ele>
        <time>2011-09-28T10:41:43Z</time>
      </trkpt>
      <trkpt lat="43.62008" lon="7.04824">
        <ele>125.66036987305</ele>
        <time>2011-09-28T10:41:46Z</time>
      </trkpt>
      <trkpt lat="43.61993" lon="7.04824">
        <ele>125.56688690185</ele>
        <time>2011-09-28T10:41:50Z</time>
      </trkpt>
      <trkpt lat="43.61989" lon="7.04822">
        <ele>125.63726806641</ele>
        <time>2011-09-28T10:41:51Z</time>
      </trkpt>
      <trkpt lat="43.61977" lon="7.0481">
        <ele>126.01043701172</ele>
        <time>2011-09-28T10:41:54Z</time>
      </trkpt>
      <trkpt lat="43.61966" lon="7.04798">
        <ele>126.26917266846</ele>
        <time>2011-09-28T10:41:57Z</time>
      </trkpt>
      <trkpt lat="43.61958" lon="7.04791">
        <ele>126.5146484375</ele>
        <time>2011-09-28T10:41:59Z</time>
      </trkpt>
      <trkpt lat="43.61953" lon="7.04787">
        <ele>126.65369415283</ele>
        <time>2011-09-28T10:42:00Z</time>
      </trkpt>
      <trkpt lat="43.61943" lon="7.04787">
        <ele>126.66742706299</ele>
        <time>2011-09-28T10:42:03Z</time>
      </trkpt>
      <trkpt lat="43.61929" lon="7.0478">
        <ele>126.91633605957</ele>
        <time>2011-09-28T10:42:06Z</time>
      </trkpt>
      <trkpt lat="43.61926" lon="7.04777">
        <ele>127.03821563721</ele>
        <time>2011-09-28T10:42:07Z</time>
      </trkpt>
      <trkpt lat="43.61917" lon="7.04768">
        <ele>127.36780548096</ele>
        <time>2011-09-28T10:42:10Z</time>
      </trkpt>
      <trkpt lat="43.61911" lon="7.04761">
        <ele>127.62014770508</ele>
        <time>2011-09-28T10:42:12Z</time>
      </trkpt>
      <trkpt lat="43.61909" lon="7.0476">
        <ele>127.6527633667</ele>
        <time>2011-09-28T10:42:13Z</time>
      </trkpt>
      <trkpt lat="43.61901" lon="7.04756">
        <ele>127.76949310303</ele>
        <time>2011-09-28T10:42:16Z</time>
      </trkpt>
      <trkpt lat="43.6188" lon="7.04744">
        <ele>127.91356658935</ele>
        <time>2011-09-28T10:42:24Z</time>
      </trkpt>
      <trkpt lat="43.61871" lon="7.04726">
        <ele>128.2431640625</ele>
        <time>2011-09-28T10:42:28Z</time>
      </trkpt>
      <trkpt lat="43.61871" lon="7.04694">
        <ele>129.37268066406</ele>
        <time>2011-09-28T10:42:32Z</time>
      </trkpt>
      <trkpt lat="43.61871" lon="7.04681">
        <ele>129.82586669922</ele>
        <time>2011-09-28T10:42:34Z</time>
      </trkpt>
      <trkpt lat="43.61866" lon="7.04674">
        <ele>129.90998840332</ele>
        <time>2011-09-28T10:42:36Z</time>
      </trkpt>
      <trkpt lat="43.61858" lon="7.04687">
        <ele>129.18473815918</ele>
        <time>2011-09-28T10:42:39Z</time>
      </trkpt>
      <trkpt lat="43.61864" lon="7.04689">
        <ele>129.31774902344</ele>
        <time>2011-09-28T10:42:41Z</time>
      </trkpt>
      <trkpt lat="43.61871" lon="7.04686">
        <ele>129.63018798828</ele>
        <time>2011-09-28T10:42:43Z</time>
      </trkpt>
      <trkpt lat="43.61874" lon="7.04681">
        <ele>129.93402099609</ele>
        <time>2011-09-28T10:42:45Z</time>
      </trkpt>
      <trkpt lat="43.61868" lon="7.04674">
        <ele>130.00955200195</ele>
        <time>2011-09-28T10:42:48Z</time>
      </trkpt>
      <trkpt lat="43.61861" lon="7.04683">
        <ele>129.40173339844</ele>
        <time>2011-09-28T10:42:51Z</time>
      </trkpt>
      <trkpt lat="43.61868" lon="7.04689">
        <ele>129.41387939453</ele>
        <time>2011-09-28T10:42:54Z</time>
      </trkpt>
      <trkpt lat="43.61872" lon="7.04681">
        <ele>129.84991455078</ele>
        <time>2011-09-28T10:42:57Z</time>
      </trkpt>
      <trkpt lat="43.61864" lon="7.04673">
        <ele>129.90484619141</ele>
        <time>2011-09-28T10:43:00Z</time>
      </trkpt>
      <trkpt lat="43.6185" lon="7.04669">
        <ele>129.87518310547</ele>
        <time>2011-09-28T10:43:03Z</time>
      </trkpt>
      <trkpt lat="43.61833" lon="7.04653">
        <ele>130.49375915527</ele>
        <time>2011-09-28T10:43:08Z</time>
      </trkpt>
      <trkpt lat="43.6183" lon="7.04648">
        <ele>130.61549377441</ele>
        <time>2011-09-28T10:43:09Z</time>
      </trkpt>
      <trkpt lat="43.61825" lon="7.04635">
        <ele>131.14685058594</ele>
        <time>2011-09-28T10:43:12Z</time>
      </trkpt>
      <trkpt lat="43.61823" lon="7.0463">
        <ele>131.30822753906</ele>
        <time>2011-09-28T10:43:13Z</time>
      </trkpt>
      <trkpt lat="43.61816" lon="7.04613">
        <ele>131.91589355469</ele>
        <time>2011-09-28T10:43:16Z</time>
      </trkpt>
      <trkpt lat="43.61813" lon="7.04609">
        <ele>132.07211303711</ele>
        <time>2011-09-28T10:43:17Z</time>
      </trkpt>
      <trkpt lat="43.6181" lon="7.04605">
        <ele>132.23004150391</ele>
        <time>2011-09-28T10:43:18Z</time>
      </trkpt>
      <trkpt lat="43.61806" lon="7.04596">
        <ele>132.55792236328</ele>
        <time>2011-09-28T10:43:20Z</time>
      </trkpt>
      <trkpt lat="43.61799" lon="7.04576">
        <ele>133.64897155762</ele>
        <time>2011-09-28T10:43:24Z</time>
      </trkpt>
      <trkpt lat="43.61787" lon="7.0455">
        <ele>134.87268066406</ele>
        <time>2011-09-28T10:43:29Z</time>
      </trkpt>
      <trkpt lat="43.61766" lon="7.04511">
        <ele>137.42510986328</ele>
        <time>2011-09-28T10:43:36Z</time>
      </trkpt>
      <trkpt lat="43.61753" lon="7.04493">
        <ele>138.77807617188</ele>
        <time>2011-09-28T10:43:40Z</time>
      </trkpt>
      <trkpt lat="43.61749" lon="7.0449">
        <ele>139</ele>
        <time>2011-09-28T10:43:41Z</time>
      </trkpt>
      <trkpt lat="43.61733" lon="7.04471">
        <ele>139</ele>
        <time>2011-09-28T10:43:45Z</time>
      </trkpt>
      <trkpt lat="43.61726" lon="7.04447">
        <ele>139</ele>
        <time>2011-09-28T10:43:49Z</time>
      </trkpt>
      <trkpt lat="43.61723" lon="7.04433">
        <ele>139</ele>
        <time>2011-09-28T10:43:51Z</time>
      </trkpt>
      <trkpt lat="43.61722" lon="7.04421">
        <ele>139</ele>
        <time>2011-09-28T10:43:53Z</time>
      </trkpt>
      <trkpt lat="43.61722" lon="7.04415">
        <ele>139</ele>
        <time>2011-09-28T10:43:54Z</time>
      </trkpt>
      <trkpt lat="43.61717" lon="7.04396">
        <ele>139</ele>
        <time>2011-09-28T10:43:57Z</time>
      </trkpt>
      <trkpt lat="43.61713" lon="7.04385">
        <ele>139.14019775391</ele>
        <time>2011-09-28T10:43:59Z</time>
      </trkpt>
      <trkpt lat="43.6172" lon="7.04365">
        <ele>139.85430908203</ele>
        <time>2011-09-28T10:44:03Z</time>
      </trkpt>
      <trkpt lat="43.61723" lon="7.04362">
        <ele>139.98477172852</ele>
        <time>2011-09-28T10:44:04Z</time>
      </trkpt>
      <trkpt lat="43.61738" lon="7.0434">
        <ele>140</ele>
        <time>2011-09-28T10:44:10Z</time>
      </trkpt>
      <trkpt lat="43.61739" lon="7.04316">
        <ele>140</ele>
        <time>2011-09-28T10:44:15Z</time>
      </trkpt>
      <trkpt lat="43.6174" lon="7.04291">
        <ele>140</ele>
        <time>2011-09-28T10:44:20Z</time>
      </trkpt>
      <trkpt lat="43.61738" lon="7.04287">
        <ele>140</ele>
        <time>2011-09-28T10:44:21Z</time>
      </trkpt>
      <trkpt lat="43.61731" lon="7.04276">
        <ele>140</ele>
        <time>2011-09-28T10:44:23Z</time>
      </trkpt>
      <trkpt lat="43.61724" lon="7.04265">
        <ele>140</ele>
        <time>2011-09-28T10:44:25Z</time>
      </trkpt>
      <trkpt lat="43.61716" lon="7.04247">
        <ele>140</ele>
        <time>2011-09-28T10:44:28Z</time>
      </trkpt>
      <trkpt lat="43.61713" lon="7.04244">
        <ele>140</ele>
        <time>2011-09-28T10:44:29Z</time>
      </trkpt>
      <trkpt lat="43.61703" lon="7.04238">
        <ele>140</ele>
        <time>2011-09-28T10:44:31Z</time>
      </trkpt>
      <trkpt lat="43.61693" lon="7.04222">
        <ele>140</ele>
        <time>2011-09-28T10:44:34Z</time>
      </trkpt>
      <trkpt lat="43.6169" lon="7.04217">
        <ele>140</ele>
        <time>2011-09-28T10:44:35Z</time>
      </trkpt>
      <trkpt lat="43.61688" lon="7.04211">
        <ele>140</ele>
        <time>2011-09-28T10:44:36Z</time>
      </trkpt>
      <trkpt lat="43.61687" lon="7.04191">
        <ele>140</ele>
        <time>2011-09-28T10:44:39Z</time>
      </trkpt>
      <trkpt lat="43.61699" lon="7.04179">
        <ele>140</ele>
        <time>2011-09-28T10:44:42Z</time>
      </trkpt>
      <trkpt lat="43.61708" lon="7.04166">
        <ele>140</ele>
        <time>2011-09-28T10:44:45Z</time>
      </trkpt>
      <trkpt lat="43.61716" lon="7.04151">
        <ele>140</ele>
        <time>2011-09-28T10:44:49Z</time>
      </trkpt>
      <trkpt lat="43.61716" lon="7.04147">
        <ele>140</ele>
        <time>2011-09-28T10:44:50Z</time>
      </trkpt>
      <trkpt lat="43.61718" lon="7.04129">
        <ele>140</ele>
        <time>2011-09-28T10:44:53Z</time>
      </trkpt>
      <trkpt lat="43.61718" lon="7.04114">
        <ele>140</ele>
        <time>2011-09-28T10:44:55Z</time>
      </trkpt>
      <trkpt lat="43.61723" lon="7.04093">
        <ele>140</ele>
        <time>2011-09-28T10:44:58Z</time>
      </trkpt>
      <trkpt lat="43.61734" lon="7.04061">
        <ele>140</ele>
        <time>2011-09-28T10:45:03Z</time>
      </trkpt>
      <trkpt lat="43.61741" lon="7.04026">
        <ele>140</ele>
        <time>2011-09-28T10:45:08Z</time>
      </trkpt>
      <trkpt lat="43.61744" lon="7.04">
        <ele>140</ele>
        <time>2011-09-28T10:45:12Z</time>
      </trkpt>
      <trkpt lat="43.61743" lon="7.03986">
        <ele>140</ele>
        <time>2011-09-28T10:45:14Z</time>
      </trkpt>
      <trkpt lat="43.61741" lon="7.03972">
        <ele>140</ele>
        <time>2011-09-28T10:45:16Z</time>
      </trkpt>
      <trkpt lat="43.61742" lon="7.03952">
        <ele>140</ele>
        <time>2011-09-28T10:45:19Z</time>
      </trkpt>
      <trkpt lat="43.61739" lon="7.03934">
        <ele>140</ele>
        <time>2011-09-28T10:45:22Z</time>
      </trkpt>
      <trkpt lat="43.61736" lon="7.03926">
        <ele>140</ele>
        <time>2011-09-28T10:45:24Z</time>
      </trkpt>
      <trkpt lat="43.61726" lon="7.03924">
        <ele>140</ele>
        <time>2011-09-28T10:45:28Z</time>
      </trkpt>
      <trkpt lat="43.6172" lon="7.0393">
        <ele>140</ele>
        <time>2011-09-28T10:45:30Z</time>
      </trkpt>
      <trkpt lat="43.61713" lon="7.03937">
        <ele>140</ele>
        <time>2011-09-28T10:45:32Z</time>
      </trkpt>
      <trkpt lat="43.61698" lon="7.0396">
        <ele>140</ele>
        <time>2011-09-28T10:45:37Z</time>
      </trkpt>
      <trkpt lat="43.61694" lon="7.03972">
        <ele>140</ele>
        <time>2011-09-28T10:45:39Z</time>
      </trkpt>
      <trkpt lat="43.61695" lon="7.03986">
        <ele>140</ele>
        <time>2011-09-28T10:45:41Z</time>
      </trkpt>
      <trkpt lat="43.61694" lon="7.04012">
        <ele>140</ele>
        <time>2011-09-28T10:45:45Z</time>
      </trkpt>
      <trkpt lat="43.61694" lon="7.04019">
        <ele>140</ele>
        <time>2011-09-28T10:45:46Z</time>
      </trkpt>
      <trkpt lat="43.61694" lon="7.04026">
        <ele>140</ele>
        <time>2011-09-28T10:45:47Z</time>
      </trkpt>
      <trkpt lat="43.61689" lon="7.04049">
        <ele>140</ele>
        <time>2011-09-28T10:45:50Z</time>
      </trkpt>
      <trkpt lat="43.61685" lon="7.04065">
        <ele>140</ele>
        <time>2011-09-28T10:45:52Z</time>
      </trkpt>
      <trkpt lat="43.61677" lon="7.04077">
        <ele>140</ele>
        <time>2011-09-28T10:45:54Z</time>
      </trkpt>
      <trkpt lat="43.61663" lon="7.04101">
        <ele>140</ele>
        <time>2011-09-28T10:45:58Z</time>
      </trkpt>
      <trkpt lat="43.61647" lon="7.04118">
        <ele>140</ele>
        <time>2011-09-28T10:46:02Z</time>
      </trkpt>
      <trkpt lat="43.61641" lon="7.04127">
        <ele>140</ele>
        <time>2011-09-28T10:46:04Z</time>
      </trkpt>
      <trkpt lat="43.61631" lon="7.04141">
        <ele>140</ele>
        <time>2011-09-28T10:46:07Z</time>
      </trkpt>
      <trkpt lat="43.61626" lon="7.04145">
        <ele>140</ele>
        <time>2011-09-28T10:46:09Z</time>
      </trkpt>
      <trkpt lat="43.61621" lon="7.04148">
        <ele>140</ele>
        <time>2011-09-28T10:46:11Z</time>
      </trkpt>
      <trkpt lat="43.61607" lon="7.0415">
        <ele>140</ele>
        <time>2011-09-28T10:46:16Z</time>
      </trkpt>
      <trkpt lat="43.61592" lon="7.04149">
        <ele>140</ele>
        <time>2011-09-28T10:46:21Z</time>
      </trkpt>
      <trkpt lat="43.61585" lon="7.04152">
        <ele>140</ele>
        <time>2011-09-28T10:46:24Z</time>
      </trkpt>
      <trkpt lat="43.61584" lon="7.04155">
        <ele>140</ele>
        <time>2011-09-28T10:46:25Z</time>
      </trkpt>
      <trkpt lat="43.61573" lon="7.04168">
        <ele>140</ele>
        <time>2011-09-28T10:46:29Z</time>
      </trkpt>
      <trkpt lat="43.61571" lon="7.04174">
        <ele>140</ele>
        <time>2011-09-28T10:46:30Z</time>
      </trkpt>
      <trkpt lat="43.6156" lon="7.04183">
        <ele>140</ele>
        <time>2011-09-28T10:46:33Z</time>
      </trkpt>
      <trkpt lat="43.61557" lon="7.04183">
        <ele>140</ele>
        <time>2011-09-28T10:46:35Z</time>
      </trkpt>
      <trkpt lat="43.61556" lon="7.04182">
        <ele>140</ele>
        <time>2011-09-28T10:46:36Z</time>
      </trkpt>
      <trkpt lat="43.61548" lon="7.04175">
        <ele>140</ele>
        <time>2011-09-28T10:46:40Z</time>
      </trkpt>
      <trkpt lat="43.61546" lon="7.04172">
        <ele>140</ele>
        <time>2011-09-28T10:46:41Z</time>
      </trkpt>
      <trkpt lat="43.61542" lon="7.04169">
        <ele>140</ele>
        <time>2011-09-28T10:46:44Z</time>
      </trkpt>
      <trkpt lat="43.6154" lon="7.04169">
        <ele>140</ele>
        <time>2011-09-28T10:46:45Z</time>
      </trkpt>
      <trkpt lat="43.61539" lon="7.0417">
        <ele>140</ele>
        <time>2011-09-28T10:46:49Z</time>
      </trkpt>
      <trkpt lat="43.61531" lon="7.04165">
        <ele>140</ele>
        <time>2011-09-28T10:47:01Z</time>
      </trkpt>
      <trkpt lat="43.6153" lon="7.04165">
        <ele>140</ele>
        <time>2011-09-28T10:47:02Z</time>
      </trkpt>
      <trkpt lat="43.61527" lon="7.04172">
        <ele>140</ele>
        <time>2011-09-28T10:47:05Z</time>
      </trkpt>
      <trkpt lat="43.61524" lon="7.04174">
        <ele>140</ele>
        <time>2011-09-28T10:47:06Z</time>
      </trkpt>
      <trkpt lat="43.61514" lon="7.04186">
        <ele>140</ele>
        <time>2011-09-28T10:47:11Z</time>
      </trkpt>
      <trkpt lat="43.61504" lon="7.04198">
        <ele>140</ele>
        <time>2011-09-28T10:47:15Z</time>
      </trkpt>
      <trkpt lat="43.6149" lon="7.0422">
        <ele>140</ele>
        <time>2011-09-28T10:47:21Z</time>
      </trkpt>
      <trkpt lat="43.61479" lon="7.04241">
        <ele>140</ele>
        <time>2011-09-28T10:47:26Z</time>
      </trkpt>
      <trkpt lat="43.61466" lon="7.04256">
        <ele>140</ele>
        <time>2011-09-28T10:47:31Z</time>
      </trkpt>
      <trkpt lat="43.61458" lon="7.04268">
        <ele>140</ele>
        <time>2011-09-28T10:47:35Z</time>
      </trkpt>
      <trkpt lat="43.61444" lon="7.04282">
        <ele>140</ele>
        <time>2011-09-28T10:47:40Z</time>
      </trkpt>
      <trkpt lat="43.61434" lon="7.04283">
        <ele>140</ele>
        <time>2011-09-28T10:47:44Z</time>
      </trkpt>
      <trkpt lat="43.61432" lon="7.04282">
        <ele>140</ele>
        <time>2011-09-28T10:47:45Z</time>
      </trkpt>
      <trkpt lat="43.61428" lon="7.04278">
        <ele>140</ele>
        <time>2011-09-28T10:47:49Z</time>
      </trkpt>
      <trkpt lat="43.61427" lon="7.04275">
        <ele>140</ele>
        <time>2011-09-28T10:47:50Z</time>
      </trkpt>
      <trkpt lat="43.61427" lon="7.04264">
        <ele>140</ele>
        <time>2011-09-28T10:47:53Z</time>
      </trkpt>
      <trkpt lat="43.61423" lon="7.04246">
        <ele>140</ele>
        <time>2011-09-28T10:47:58Z</time>
      </trkpt>
      <trkpt lat="43.61422" lon="7.04231">
        <ele>140</ele>
        <time>2011-09-28T10:48:03Z</time>
      </trkpt>
      <trkpt lat="43.6142" lon="7.04208">
        <ele>140</ele>
        <time>2011-09-28T10:48:09Z</time>
      </trkpt>
      <trkpt lat="43.61423" lon="7.04186">
        <ele>140</ele>
        <time>2011-09-28T10:48:14Z</time>
      </trkpt>
      <trkpt lat="43.61419" lon="7.04167">
        <ele>140</ele>
        <time>2011-09-28T10:48:18Z</time>
      </trkpt>
      <trkpt lat="43.61412" lon="7.04142">
        <ele>140</ele>
        <time>2011-09-28T10:48:23Z</time>
      </trkpt>
      <trkpt lat="43.61404" lon="7.04125">
        <ele>140</ele>
        <time>2011-09-28T10:48:27Z</time>
      </trkpt>
      <trkpt lat="43.61402" lon="7.04103">
        <ele>140</ele>
        <time>2011-09-28T10:48:30Z</time>
      </trkpt>
      <trkpt lat="43.61402" lon="7.04075">
        <ele>140</ele>
        <time>2011-09-28T10:48:34Z</time>
      </trkpt>
      <trkpt lat="43.61401" lon="7.04069">
        <ele>140</ele>
        <time>2011-09-28T10:48:35Z</time>
      </trkpt>
      <trkpt lat="43.61399" lon="7.04056">
        <ele>140</ele>
        <time>2011-09-28T10:48:38Z</time>
      </trkpt>
      <trkpt lat="43.61399" lon="7.04052">
        <ele>140</ele>
        <time>2011-09-28T10:48:39Z</time>
      </trkpt>
      <trkpt lat="43.61395" lon="7.04036">
        <ele>140</ele>
        <time>2011-09-28T10:48:42Z</time>
      </trkpt>
      <trkpt lat="43.61393" lon="7.04032">
        <ele>140</ele>
        <time>2011-09-28T10:48:43Z</time>
      </trkpt>
      <trkpt lat="43.6138" lon="7.04018">
        <ele>140</ele>
        <time>2011-09-28T10:48:47Z</time>
      </trkpt>
      <trkpt lat="43.61366" lon="7.0401">
        <ele>140</ele>
        <time>2011-09-28T10:48:50Z</time>
      </trkpt>
      <trkpt lat="43.61356" lon="7.04003">
        <ele>140</ele>
        <time>2011-09-28T10:48:52Z</time>
      </trkpt>
      <trkpt lat="43.61333" lon="7.03981">
        <ele>140</ele>
        <time>2011-09-28T10:48:57Z</time>
      </trkpt>
      <trkpt lat="43.61312" lon="7.03949">
        <ele>140</ele>
        <time>2011-09-28T10:49:03Z</time>
      </trkpt>
      <trkpt lat="43.61303" lon="7.03934">
        <ele>140</ele>
        <time>2011-09-28T10:49:06Z</time>
      </trkpt>
      <trkpt lat="43.61296" lon="7.03924">
        <ele>140</ele>
        <time>2011-09-28T10:49:08Z</time>
      </trkpt>
      <trkpt lat="43.61292" lon="7.03919">
        <ele>140</ele>
        <time>2011-09-28T10:49:09Z</time>
      </trkpt>
      <trkpt lat="43.61285" lon="7.0391">
        <ele>140</ele>
        <time>2011-09-28T10:49:11Z</time>
      </trkpt>
      <trkpt lat="43.61278" lon="7.03901">
        <ele>140</ele>
        <time>2011-09-28T10:49:13Z</time>
      </trkpt>
      <trkpt lat="43.61276" lon="7.03897">
        <ele>140</ele>
        <time>2011-09-28T10:49:14Z</time>
      </trkpt>
      <trkpt lat="43.61271" lon="7.03879">
        <ele>140</ele>
        <time>2011-09-28T10:49:17Z</time>
      </trkpt>
      <trkpt lat="43.61265" lon="7.03857">
        <ele>140</ele>
        <time>2011-09-28T10:49:21Z</time>
      </trkpt>
      <trkpt lat="43.61263" lon="7.0385">
        <ele>140</ele>
        <time>2011-09-28T10:49:22Z</time>
      </trkpt>
      <trkpt lat="43.61262" lon="7.03845">
        <ele>140</ele>
        <time>2011-09-28T10:49:23Z</time>
      </trkpt>
      <trkpt lat="43.61257" lon="7.03834">
        <ele>140</ele>
        <time>2011-09-28T10:49:25Z</time>
      </trkpt>
      <trkpt lat="43.61256" lon="7.03827">
        <ele>140</ele>
        <time>2011-09-28T10:49:26Z</time>
      </trkpt>
      <trkpt lat="43.61251" lon="7.03798">
        <ele>140</ele>
        <time>2011-09-28T10:49:31Z</time>
      </trkpt>
      <trkpt lat="43.61237" lon="7.03782">
        <ele>140</ele>
        <time>2011-09-28T10:49:35Z</time>
      </trkpt>
      <trkpt lat="43.6122" lon="7.03782">
        <ele>140</ele>
        <time>2011-09-28T10:49:40Z</time>
      </trkpt>
      <trkpt lat="43.61215" lon="7.03783">
        <ele>140</ele>
        <time>2011-09-28T10:49:42Z</time>
      </trkpt>
      <trkpt lat="43.61213" lon="7.03781">
        <ele>140</ele>
        <time>2011-09-28T10:49:44Z</time>
      </trkpt>
      <trkpt lat="43.6121" lon="7.0378">
        <ele>140</ele>
        <time>2011-09-28T10:49:49Z</time>
      </trkpt>
      <trkpt lat="43.612" lon="7.03777">
        <ele>140</ele>
        <time>2011-09-28T10:51:23Z</time>
      </trkpt>
      <trkpt lat="43.61185" lon="7.03763">
        <ele>140</ele>
        <time>2011-09-28T10:51:28Z</time>
      </trkpt>
      <trkpt lat="43.61183" lon="7.03763">
        <ele>140</ele>
        <time>2011-09-28T10:51:29Z</time>
      </trkpt>
      <trkpt lat="43.61177" lon="7.03758">
        <ele>140</ele>
        <time>2011-09-28T10:51:31Z</time>
      </trkpt>
      <trkpt lat="43.61171" lon="7.03741">
        <ele>140</ele>
        <time>2011-09-28T10:51:36Z</time>
      </trkpt>
      <trkpt lat="43.61156" lon="7.03724">
        <ele>140</ele>
        <time>2011-09-28T10:51:41Z</time>
      </trkpt>
      <trkpt lat="43.61144" lon="7.037">
        <ele>140</ele>
        <time>2011-09-28T10:51:46Z</time>
      </trkpt>
      <trkpt lat="43.61136" lon="7.03686">
        <ele>140</ele>
        <time>2011-09-28T10:51:50Z</time>
      </trkpt>
      <trkpt lat="43.61121" lon="7.03671">
        <ele>140</ele>
        <time>2011-09-28T10:51:55Z</time>
      </trkpt>
      <trkpt lat="43.61103" lon="7.03649">
        <ele>140</ele>
        <time>2011-09-28T10:52:00Z</time>
      </trkpt>
      <trkpt lat="43.61099" lon="7.03644">
        <ele>140</ele>
        <time>2011-09-28T10:52:01Z</time>
      </trkpt>
      <trkpt lat="43.61089" lon="7.03636">
        <ele>140</ele>
        <time>2011-09-28T10:52:04Z</time>
      </trkpt>
      <trkpt lat="43.61082" lon="7.0363">
        <ele>140</ele>
        <time>2011-09-28T10:52:06Z</time>
      </trkpt>
      <trkpt lat="43.61079" lon="7.03629">
        <ele>140</ele>
        <time>2011-09-28T10:52:07Z</time>
      </trkpt>
      <trkpt lat="43.61077" lon="7.03628">
        <ele>140</ele>
        <time>2011-09-28T10:52:08Z</time>
      </trkpt>
      <trkpt lat="43.61073" lon="7.0362">
        <ele>140</ele>
        <time>2011-09-28T10:52:12Z</time>
      </trkpt>
      <trkpt lat="43.61063" lon="7.03612">
        <ele>140</ele>
        <time>2011-09-28T10:52:16Z</time>
      </trkpt>
      <trkpt lat="43.61052" lon="7.03608">
        <ele>140</ele>
        <time>2011-09-28T10:52:20Z</time>
      </trkpt>
      <trkpt lat="43.61037" lon="7.03602">
        <ele>140</ele>
        <time>2011-09-28T10:52:25Z</time>
      </trkpt>
      <trkpt lat="43.6102" lon="7.03589">
        <ele>140</ele>
        <time>2011-09-28T10:52:31Z</time>
      </trkpt>
      <trkpt lat="43.61017" lon="7.03587">
        <ele>140</ele>
        <time>2011-09-28T10:52:32Z</time>
      </trkpt>
      <trkpt lat="43.61014" lon="7.03582">
        <ele>140</ele>
        <time>2011-09-28T10:52:34Z</time>
      </trkpt>
      <trkpt lat="43.6101" lon="7.03572">
        <ele>140</ele>
        <time>2011-09-28T10:52:36Z</time>
      </trkpt>
      <trkpt lat="43.61002" lon="7.03565">
        <ele>140</ele>
        <time>2011-09-28T10:52:39Z</time>
      </trkpt>
      <trkpt lat="43.60999" lon="7.03565">
        <ele>140</ele>
        <time>2011-09-28T10:52:40Z</time>
      </trkpt>
      <trkpt lat="43.60994" lon="7.03563">
        <ele>140</ele>
        <time>2011-09-28T10:52:44Z</time>
      </trkpt>
      <trkpt lat="43.60995" lon="7.03562">
        <ele>140</ele>
        <time>2011-09-28T10:52:46Z</time>
      </trkpt>
      <trkpt lat="43.60992" lon="7.0356">
        <ele>140</ele>
        <time>2011-09-28T10:52:50Z</time>
      </trkpt>
      <trkpt lat="43.60989" lon="7.03556">
        <ele>140</ele>
        <time>2011-09-28T10:52:54Z</time>
      </trkpt>
      <trkpt lat="43.60987" lon="7.03555">
        <ele>140</ele>
        <time>2011-09-28T10:53:02Z</time>
      </trkpt>
      <trkpt lat="43.6098" lon="7.03542">
        <ele>140</ele>
        <time>2011-09-28T10:53:55Z</time>
      </trkpt>
      <trkpt lat="43.60971" lon="7.03531">
        <ele>140.03622436523</ele>
        <time>2011-09-28T10:53:59Z</time>
      </trkpt>
      <trkpt lat="43.60961" lon="7.0352">
        <ele>140.87252807617</ele>
        <time>2011-09-28T10:54:03Z</time>
      </trkpt>
      <trkpt lat="43.60954" lon="7.03509">
        <ele>141.53813171387</ele>
        <time>2011-09-28T10:54:07Z</time>
      </trkpt>
      <trkpt lat="43.60943" lon="7.03503">
        <ele>142.10961914062</ele>
        <time>2011-09-28T10:54:12Z</time>
      </trkpt>
      <trkpt lat="43.60941" lon="7.03501">
        <ele>142.40832519531</ele>
        <time>2011-09-28T10:54:13Z</time>
      </trkpt>
      <trkpt lat="43.60936" lon="7.03492">
        <ele>143.74603271484</ele>
        <time>2011-09-28T10:54:16Z</time>
      </trkpt>
      <trkpt lat="43.60933" lon="7.03488">
        <ele>144.32130432129</ele>
        <time>2011-09-28T10:54:17Z</time>
      </trkpt>
      <trkpt lat="43.60927" lon="7.03472">
        <ele>145.87915039062</ele>
        <time>2011-09-28T10:54:22Z</time>
      </trkpt>
      <trkpt lat="43.60921" lon="7.03461">
        <ele>146.88851928711</ele>
        <time>2011-09-28T10:54:27Z</time>
      </trkpt>
      <trkpt lat="43.60912" lon="7.03448">
        <ele>148.21873474121</ele>
        <time>2011-09-28T10:54:33Z</time>
      </trkpt>
      <trkpt lat="43.6091" lon="7.03446">
        <ele>148.44532775879</ele>
        <time>2011-09-28T10:54:34Z</time>
      </trkpt>
      <trkpt lat="43.60904" lon="7.03442">
        <ele>149.00665283203</ele>
        <time>2011-09-28T10:54:40Z</time>
      </trkpt>
      <trkpt lat="43.60893" lon="7.03454">
        <ele>149.37057495117</ele>
        <time>2011-09-28T10:55:13Z</time>
      </trkpt>
      <trkpt lat="43.60892" lon="7.03457">
        <ele>149.33969116211</ele>
        <time>2011-09-28T10:55:15Z</time>
      </trkpt>
      <trkpt lat="43.60888" lon="7.03471">
        <ele>149.12167358398</ele>
        <time>2011-09-28T10:55:20Z</time>
      </trkpt>
      <trkpt lat="43.60887" lon="7.03474">
        <ele>149.10980224609</ele>
        <time>2011-09-28T10:55:21Z</time>
      </trkpt>
      <trkpt lat="43.60877" lon="7.0349">
        <ele>149.50997924805</ele>
        <time>2011-09-28T10:55:27Z</time>
      </trkpt>
      <trkpt lat="43.60862" lon="7.03499">
        <ele>150.9084777832</ele>
        <time>2011-09-28T10:55:32Z</time>
      </trkpt>
      <trkpt lat="43.60837" lon="7.03506">
        <ele>153.38497924805</ele>
        <time>2011-09-28T10:55:40Z</time>
      </trkpt>
      <trkpt lat="43.60826" lon="7.03514">
        <ele>153.87551879883</ele>
        <time>2011-09-28T10:55:45Z</time>
      </trkpt>
      <trkpt lat="43.60817" lon="7.03527">
        <ele>154.22018432617</ele>
        <time>2011-09-28T10:55:50Z</time>
      </trkpt>
      <trkpt lat="43.60803" lon="7.03542">
        <ele>155.3359375</ele>
        <time>2011-09-28T10:55:56Z</time>
      </trkpt>
      <trkpt lat="43.60791" lon="7.03553">
        <ele>157.14868164062</ele>
        <time>2011-09-28T10:56:01Z</time>
      </trkpt>
      <trkpt lat="43.6077" lon="7.03563">
        <ele>159.07493591309</ele>
        <time>2011-09-28T10:56:08Z</time>
      </trkpt>
      <trkpt lat="43.60756" lon="7.03562">
        <ele>159.1826171875</ele>
        <time>2011-09-28T10:56:13Z</time>
      </trkpt>
      <trkpt lat="43.60754" lon="7.03559">
        <ele>159.11395263672</ele>
        <time>2011-09-28T10:56:15Z</time>
      </trkpt>
      <trkpt lat="43.60752" lon="7.03556">
        <ele>159.03155517578</ele>
        <time>2011-09-28T10:56:18Z</time>
      </trkpt>
      <trkpt lat="43.6075" lon="7.03557">
        <ele>159.04908752441</ele>
        <time>2011-09-28T10:56:19Z</time>
      </trkpt>
      <trkpt lat="43.6075" lon="7.03553">
        <ele>159.00659179688</ele>
        <time>2011-09-28T10:56:27Z</time>
      </trkpt>
      <trkpt lat="43.60749" lon="7.03545">
        <ele>159.03405761719</ele>
        <time>2011-09-28T10:56:32Z</time>
      </trkpt>
      <trkpt lat="43.60749" lon="7.03542">
        <ele>159.03405761719</ele>
        <time>2011-09-28T10:56:33Z</time>
      </trkpt>
      <trkpt lat="43.60739" lon="7.03528">
        <ele>159.38986206055</ele>
        <time>2011-09-28T10:56:37Z</time>
      </trkpt>
      <trkpt lat="43.60717" lon="7.03519">
        <ele>160.17131042481</ele>
        <time>2011-09-28T10:56:41Z</time>
      </trkpt>
      <trkpt lat="43.60707" lon="7.03512">
        <ele>160.72331237793</ele>
        <time>2011-09-28T10:56:45Z</time>
      </trkpt>
      <trkpt lat="43.60696" lon="7.03502">
        <ele>161.04154968262</ele>
        <time>2011-09-28T10:56:47Z</time>
      </trkpt>
      <trkpt lat="43.60694" lon="7.03499">
        <ele>161.08322143555</ele>
        <time>2011-09-28T10:56:48Z</time>
      </trkpt>
      <trkpt lat="43.60686" lon="7.03487">
        <ele>163.23585510254</ele>
        <time>2011-09-28T10:56:50Z</time>
      </trkpt>
      <trkpt lat="43.60685" lon="7.03477">
        <ele>163.11912536621</ele>
        <time>2011-09-28T10:56:52Z</time>
      </trkpt>
      <trkpt lat="43.60694" lon="7.03461">
        <ele>160.21731567383</ele>
        <time>2011-09-28T10:56:55Z</time>
      </trkpt>
      <trkpt lat="43.60701" lon="7.03449">
        <ele>159.75067138672</ele>
        <time>2011-09-28T10:56:57Z</time>
      </trkpt>
      <trkpt lat="43.60708" lon="7.03436">
        <ele>159.34684753418</ele>
        <time>2011-09-28T10:57:00Z</time>
      </trkpt>
      <trkpt lat="43.60715" lon="7.03427">
        <ele>159.08757019043</ele>
        <time>2011-09-28T10:57:02Z</time>
      </trkpt>
      <trkpt lat="43.60726" lon="7.03416">
        <ele>159</ele>
        <time>2011-09-28T10:57:05Z</time>
      </trkpt>
      <trkpt lat="43.60731" lon="7.03408">
        <ele>159</ele>
        <time>2011-09-28T10:57:07Z</time>
      </trkpt>
      <trkpt lat="43.60739" lon="7.03396">
        <ele>159</ele>
        <time>2011-09-28T10:57:10Z</time>
      </trkpt>
      <trkpt lat="43.60748" lon="7.03384">
        <ele>159</ele>
        <time>2011-09-28T10:57:13Z</time>
      </trkpt>
      <trkpt lat="43.60752" lon="7.03379">
        <ele>159</ele>
        <time>2011-09-28T10:57:15Z</time>
      </trkpt>
      <trkpt lat="43.60759" lon="7.03363">
        <ele>159</ele>
        <time>2011-09-28T10:57:19Z</time>
      </trkpt>
      <trkpt lat="43.60759" lon="7.03351">
        <ele>159</ele>
        <time>2011-09-28T10:57:23Z</time>
      </trkpt>
      <trkpt lat="43.60757" lon="7.0335">
        <ele>159</ele>
        <time>2011-09-28T10:57:24Z</time>
      </trkpt>
      <trkpt lat="43.60751" lon="7.03346">
        <ele>159</ele>
        <time>2011-09-28T10:57:27Z</time>
      </trkpt>
      <trkpt lat="43.6073" lon="7.03333">
        <ele>159</ele>
        <time>2011-09-28T10:57:33Z</time>
      </trkpt>
      <trkpt lat="43.60717" lon="7.03322">
        <ele>159</ele>
        <time>2011-09-28T10:57:39Z</time>
      </trkpt>
      <trkpt lat="43.60704" lon="7.03311">
        <ele>159</ele>
        <time>2011-09-28T10:57:44Z</time>
      </trkpt>
      <trkpt lat="43.60698" lon="7.03308">
        <ele>159</ele>
        <time>2011-09-28T10:57:47Z</time>
      </trkpt>
      <trkpt lat="43.60698" lon="7.03307">
        <ele>159</ele>
        <time>2011-09-28T10:57:48Z</time>
      </trkpt>
      <trkpt lat="43.607" lon="7.03299">
        <ele>159</ele>
        <time>2011-09-28T10:58:15Z</time>
      </trkpt>
      <trkpt lat="43.60704" lon="7.03293">
        <ele>159</ele>
        <time>2011-09-28T10:58:18Z</time>
      </trkpt>
      <trkpt lat="43.60708" lon="7.03275">
        <ele>159</ele>
        <time>2011-09-28T10:58:22Z</time>
      </trkpt>
      <trkpt lat="43.60704" lon="7.03257">
        <ele>159</ele>
        <time>2011-09-28T10:58:26Z</time>
      </trkpt>
      <trkpt lat="43.60703" lon="7.03253">
        <ele>159</ele>
        <time>2011-09-28T10:58:27Z</time>
      </trkpt>
      <trkpt lat="43.60691" lon="7.03242">
        <ele>159</ele>
        <time>2011-09-28T10:58:32Z</time>
      </trkpt>
      <trkpt lat="43.6068" lon="7.03221">
        <ele>159</ele>
        <time>2011-09-28T10:58:38Z</time>
      </trkpt>
      <trkpt lat="43.60672" lon="7.03196">
        <ele>159</ele>
        <time>2011-09-28T10:58:44Z</time>
      </trkpt>
      <trkpt lat="43.60669" lon="7.03189">
        <ele>159</ele>
        <time>2011-09-28T10:58:46Z</time>
      </trkpt>
      <trkpt lat="43.60664" lon="7.03186">
        <ele>159</ele>
        <time>2011-09-28T10:58:48Z</time>
      </trkpt>
      <trkpt lat="43.60658" lon="7.03176">
        <ele>159</ele>
        <time>2011-09-28T10:58:53Z</time>
      </trkpt>
      <trkpt lat="43.60649" lon="7.03169">
        <ele>159</ele>
        <time>2011-09-28T10:58:58Z</time>
      </trkpt>
      <trkpt lat="43.60647" lon="7.03166">
        <ele>159</ele>
        <time>2011-09-28T10:59:00Z</time>
      </trkpt>
      <trkpt lat="43.60642" lon="7.03157">
        <ele>159</ele>
        <time>2011-09-28T10:59:04Z</time>
      </trkpt>
      <trkpt lat="43.6064" lon="7.03155">
        <ele>159</ele>
        <time>2011-09-28T10:59:06Z</time>
      </trkpt>
      <trkpt lat="43.60635" lon="7.03148">
        <ele>159</ele>
        <time>2011-09-28T10:59:09Z</time>
      </trkpt>
      <trkpt lat="43.60619" lon="7.0313">
        <ele>159</ele>
        <time>2011-09-28T10:59:15Z</time>
      </trkpt>
      <trkpt lat="43.60614" lon="7.03123">
        <ele>159</ele>
        <time>2011-09-28T10:59:18Z</time>
      </trkpt>
      <trkpt lat="43.60607" lon="7.03114">
        <ele>159</ele>
        <time>2011-09-28T10:59:21Z</time>
      </trkpt>
      <trkpt lat="43.606" lon="7.03104">
        <ele>159</ele>
        <time>2011-09-28T10:59:26Z</time>
      </trkpt>
      <trkpt lat="43.60593" lon="7.03096">
        <ele>159</ele>
        <time>2011-09-28T10:59:29Z</time>
      </trkpt>
      <trkpt lat="43.60587" lon="7.0309">
        <ele>159</ele>
        <time>2011-09-28T10:59:31Z</time>
      </trkpt>
      <trkpt lat="43.6057" lon="7.03078">
        <ele>159</ele>
        <time>2011-09-28T10:59:36Z</time>
      </trkpt>
      <trkpt lat="43.60551" lon="7.03067">
        <ele>159</ele>
        <time>2011-09-28T10:59:41Z</time>
      </trkpt>
      <trkpt lat="43.6054" lon="7.03059">
        <ele>159</ele>
        <time>2011-09-28T10:59:46Z</time>
      </trkpt>
      <trkpt lat="43.60522" lon="7.03052">
        <ele>159</ele>
        <time>2011-09-28T10:59:51Z</time>
      </trkpt>
      <trkpt lat="43.60506" lon="7.03042">
        <ele>159</ele>
        <time>2011-09-28T10:59:57Z</time>
      </trkpt>
      <trkpt lat="43.60482" lon="7.0304">
        <ele>161.06253051758</ele>
        <time>2011-09-28T11:00:03Z</time>
      </trkpt>
      <trkpt lat="43.60461" lon="7.03044">
        <ele>166.01815795898</ele>
        <time>2011-09-28T11:00:08Z</time>
      </trkpt>
      <trkpt lat="43.60452" lon="7.0305">
        <ele>169.89599609375</ele>
        <time>2011-09-28T11:00:10Z</time>
      </trkpt>
      <trkpt lat="43.60442" lon="7.03055">
        <ele>173.58520507812</ele>
        <time>2011-09-28T11:00:12Z</time>
      </trkpt>
      <trkpt lat="43.60438" lon="7.03057">
        <ele>174.83711242676</ele>
        <time>2011-09-28T11:00:13Z</time>
      </trkpt>
      <trkpt lat="43.60427" lon="7.03063">
        <ele>178.27893066406</ele>
        <time>2011-09-28T11:00:16Z</time>
      </trkpt>
      <trkpt lat="43.60426" lon="7.03064">
        <ele>178.52439880371</ele>
        <time>2011-09-28T11:00:17Z</time>
      </trkpt>
      <trkpt lat="43.60426" lon="7.03066">
        <ele>178.80592346191</ele>
        <time>2011-09-28T11:00:18Z</time>
      </trkpt>
      <trkpt lat="43.60429" lon="7.03058">
        <ele>177.06527709961</ele>
        <time>2011-09-28T11:00:22Z</time>
      </trkpt>
      <trkpt lat="43.60432" lon="7.03054">
        <ele>175.89576721191</ele>
        <time>2011-09-28T11:00:23Z</time>
      </trkpt>
      <trkpt lat="43.60432" lon="7.03046">
        <ele>174.35595703125</ele>
        <time>2011-09-28T11:00:24Z</time>
      </trkpt>
      <trkpt lat="43.60429" lon="7.03031">
        <ele>172.61360168457</ele>
        <time>2011-09-28T11:00:26Z</time>
      </trkpt>
      <trkpt lat="43.6041" lon="7.02996">
        <ele>171.80615234375</ele>
        <time>2011-09-28T11:00:31Z</time>
      </trkpt>
      <trkpt lat="43.60401" lon="7.02984">
        <ele>173.79461669922</ele>
        <time>2011-09-28T11:00:33Z</time>
      </trkpt>
      <trkpt lat="43.60393" lon="7.02975">
        <ele>175.7790222168</ele>
        <time>2011-09-28T11:00:35Z</time>
      </trkpt>
      <trkpt lat="43.60374" lon="7.0296">
        <ele>178.60893249512</ele>
        <time>2011-09-28T11:00:39Z</time>
      </trkpt>
      <trkpt lat="43.60369" lon="7.02958">
        <ele>179.57261657715</ele>
        <time>2011-09-28T11:00:40Z</time>
      </trkpt>
      <trkpt lat="43.60352" lon="7.02952">
        <ele>182.48600769043</ele>
        <time>2011-09-28T11:00:44Z</time>
      </trkpt>
      <trkpt lat="43.60345" lon="7.02951">
        <ele>183.42025756836</ele>
        <time>2011-09-28T11:00:46Z</time>
      </trkpt>
      <trkpt lat="43.60332" lon="7.02956">
        <ele>186.56446838379</ele>
        <time>2011-09-28T11:00:51Z</time>
      </trkpt>
      <trkpt lat="43.6032" lon="7.02957">
        <ele>187.79011535644</ele>
        <time>2011-09-28T11:00:55Z</time>
      </trkpt>
      <trkpt lat="43.60309" lon="7.02956">
        <ele>188.45146179199</ele>
        <time>2011-09-28T11:00:59Z</time>
      </trkpt>
      <trkpt lat="43.60288" lon="7.02957">
        <ele>190.86431884766</ele>
        <time>2011-09-28T11:01:06Z</time>
      </trkpt>
      <trkpt lat="43.60271" lon="7.02954">
        <ele>191.17526245117</ele>
        <time>2011-09-28T11:01:12Z</time>
      </trkpt>
      <trkpt lat="43.60244" lon="7.0295">
        <ele>189.35426330566</ele>
        <time>2011-09-28T11:01:19Z</time>
      </trkpt>
      <trkpt lat="43.60223" lon="7.02959">
        <ele>191.25535583496</ele>
        <time>2011-09-28T11:01:23Z</time>
      </trkpt>
      <trkpt lat="43.60213" lon="7.02969">
        <ele>192.99395751953</ele>
        <time>2011-09-28T11:01:26Z</time>
      </trkpt>
      <trkpt lat="43.60204" lon="7.02981">
        <ele>194.478515625</ele>
        <time>2011-09-28T11:01:29Z</time>
      </trkpt>
      <trkpt lat="43.60199" lon="7.02989">
        <ele>195.09371948242</ele>
        <time>2011-09-28T11:01:31Z</time>
      </trkpt>
      <trkpt lat="43.60189" lon="7.02998">
        <ele>194.36953735352</ele>
        <time>2011-09-28T11:01:34Z</time>
      </trkpt>
      <trkpt lat="43.60182" lon="7.03021">
        <ele>194.25463867188</ele>
        <time>2011-09-28T11:01:39Z</time>
      </trkpt>
      <trkpt lat="43.60183" lon="7.03036">
        <ele>196.06681823731</ele>
        <time>2011-09-28T11:01:43Z</time>
      </trkpt>
      <trkpt lat="43.60184" lon="7.03039">
        <ele>196.51690673828</ele>
        <time>2011-09-28T11:01:44Z</time>
      </trkpt>
      <trkpt lat="43.60188" lon="7.03055">
        <ele>198.49667358398</ele>
        <time>2011-09-28T11:01:50Z</time>
      </trkpt>
      <trkpt lat="43.60194" lon="7.03076">
        <ele>199.94100952148</ele>
        <time>2011-09-28T11:01:57Z</time>
      </trkpt>
      <trkpt lat="43.60197" lon="7.03099">
        <ele>200</ele>
        <time>2011-09-28T11:02:04Z</time>
      </trkpt>
      <trkpt lat="43.60196" lon="7.03114">
        <ele>200.10690307617</ele>
        <time>2011-09-28T11:02:09Z</time>
      </trkpt>
      <trkpt lat="43.60196" lon="7.03116">
        <ele>200.15838623047</ele>
        <time>2011-09-28T11:02:10Z</time>
      </trkpt>
      <trkpt lat="43.60196" lon="7.0312">
        <ele>200.31803894043</ele>
        <time>2011-09-28T11:02:14Z</time>
      </trkpt>
      <trkpt lat="43.60197" lon="7.03121">
        <ele>200.37297058106</ele>
        <time>2011-09-28T11:02:24Z</time>
      </trkpt>
      <trkpt lat="43.60198" lon="7.03124">
        <ele>200.47082519531</ele>
        <time>2011-09-28T11:02:38Z</time>
      </trkpt>
      <trkpt lat="43.60199" lon="7.03123">
        <ele>200.41073608398</ele>
        <time>2011-09-28T11:02:39Z</time>
      </trkpt>
      <trkpt lat="43.60204" lon="7.03113">
        <ele>200.07427978516</ele>
        <time>2011-09-28T11:02:43Z</time>
      </trkpt>
      <trkpt lat="43.60212" lon="7.031">
        <ele>200</ele>
        <time>2011-09-28T11:02:48Z</time>
      </trkpt>
      <trkpt lat="43.6022" lon="7.03082">
        <ele>200</ele>
        <time>2011-09-28T11:02:53Z</time>
      </trkpt>
      <trkpt lat="43.60221" lon="7.03078">
        <ele>200</ele>
        <time>2011-09-28T11:02:54Z</time>
      </trkpt>
      <trkpt lat="43.60222" lon="7.03063">
        <ele>200</ele>
        <time>2011-09-28T11:02:58Z</time>
      </trkpt>
      <trkpt lat="43.60225" lon="7.03041">
        <ele>200.162109375</ele>
        <time>2011-09-28T11:03:04Z</time>
      </trkpt>
      <trkpt lat="43.60238" lon="7.03021">
        <ele>200.41662597656</ele>
        <time>2011-09-28T11:03:11Z</time>
      </trkpt>
      <trkpt lat="43.60247" lon="7.03015">
        <ele>200.49452209473</ele>
        <time>2011-09-28T11:03:16Z</time>
      </trkpt>
      <trkpt lat="43.60259" lon="7.03014">
        <ele>200.66682434082</ele>
        <time>2011-09-28T11:03:21Z</time>
      </trkpt>
      <trkpt lat="43.60267" lon="7.03015">
        <ele>200.85006713867</ele>
        <time>2011-09-28T11:03:25Z</time>
      </trkpt>
      <trkpt lat="43.6027" lon="7.03014">
        <ele>200.88278198242</ele>
        <time>2011-09-28T11:03:26Z</time>
      </trkpt>
      <trkpt lat="43.6028" lon="7.03021">
        <ele>201.48466491699</ele>
        <time>2011-09-28T11:03:31Z</time>
      </trkpt>
      <trkpt lat="43.60283" lon="7.03034">
        <ele>202.25595092773</ele>
        <time>2011-09-28T11:03:36Z</time>
      </trkpt>
      <trkpt lat="43.60283" lon="7.03051">
        <ele>202.95829772949</ele>
        <time>2011-09-28T11:03:42Z</time>
      </trkpt>
      <trkpt lat="43.60283" lon="7.03064">
        <ele>203.57102966309</ele>
        <time>2011-09-28T11:03:47Z</time>
      </trkpt>
      <trkpt lat="43.60286" lon="7.03084">
        <ele>204.61520385742</ele>
        <time>2011-09-28T11:03:53Z</time>
      </trkpt>
      <trkpt lat="43.6029" lon="7.03095">
        <ele>205.73100280762</ele>
        <time>2011-09-28T11:03:57Z</time>
      </trkpt>
      <trkpt lat="43.60291" lon="7.03099">
        <ele>206.01596069336</ele>
        <time>2011-09-28T11:03:58Z</time>
      </trkpt>
      <trkpt lat="43.60299" lon="7.03111">
        <ele>207.47508239746</ele>
        <time>2011-09-28T11:04:03Z</time>
      </trkpt>
      <trkpt lat="43.60302" lon="7.03115">
        <ele>207.99333190918</ele>
        <time>2011-09-28T11:04:05Z</time>
      </trkpt>
      <trkpt lat="43.60313" lon="7.03125">
        <ele>209.13935852051</ele>
        <time>2011-09-28T11:04:09Z</time>
      </trkpt>
      <trkpt lat="43.60323" lon="7.03145">
        <ele>211.08197021484</ele>
        <time>2011-09-28T11:04:15Z</time>
      </trkpt>
      <trkpt lat="43.60333" lon="7.03158">
        <ele>212.33166503906</ele>
        <time>2011-09-28T11:04:20Z</time>
      </trkpt>
      <trkpt lat="43.60343" lon="7.03179">
        <ele>213.09886169434</ele>
        <time>2011-09-28T11:04:26Z</time>
      </trkpt>
      <trkpt lat="43.60347" lon="7.03202">
        <ele>215.169921875</ele>
        <time>2011-09-28T11:04:31Z</time>
      </trkpt>
      <trkpt lat="43.60349" lon="7.0322">
        <ele>216.70660400391</ele>
        <time>2011-09-28T11:04:35Z</time>
      </trkpt>
      <trkpt lat="43.6035" lon="7.03241">
        <ele>218.99394226074</ele>
        <time>2011-09-28T11:04:40Z</time>
      </trkpt>
      <trkpt lat="43.60352" lon="7.03246">
        <ele>219.5027923584</ele>
        <time>2011-09-28T11:04:41Z</time>
      </trkpt>
      <trkpt lat="43.60358" lon="7.03252">
        <ele>220</ele>
        <time>2011-09-28T11:04:44Z</time>
      </trkpt>
      <trkpt lat="43.60364" lon="7.03264">
        <ele>219.57696533203</ele>
        <time>2011-09-28T11:04:48Z</time>
      </trkpt>
      <trkpt lat="43.60377" lon="7.03283">
        <ele>219.07487487793</ele>
        <time>2011-09-28T11:04:54Z</time>
      </trkpt>
      <trkpt lat="43.60379" lon="7.03301">
        <ele>219.78863525391</ele>
        <time>2011-09-28T11:04:58Z</time>
      </trkpt>
      <trkpt lat="43.60383" lon="7.03324">
        <ele>220</ele>
        <time>2011-09-28T11:05:03Z</time>
      </trkpt>
      <trkpt lat="43.60384" lon="7.0333">
        <ele>220</ele>
        <time>2011-09-28T11:05:05Z</time>
      </trkpt>
      <trkpt lat="43.60382" lon="7.03338">
        <ele>220</ele>
        <time>2011-09-28T11:05:07Z</time>
      </trkpt>
      <trkpt lat="43.60381" lon="7.03342">
        <ele>220</ele>
        <time>2011-09-28T11:05:09Z</time>
      </trkpt>
      <trkpt lat="43.60381" lon="7.03342">
        <ele>220</ele>
        <time>2011-09-28T11:05:12Z</time>
      </trkpt>
      <trkpt lat="43.60387" lon="7.03347">
        <ele>220</ele>
        <time>2011-09-28T11:05:33Z</time>
      </trkpt>
      <trkpt lat="43.60389" lon="7.03358">
        <ele>220</ele>
        <time>2011-09-28T11:06:11Z</time>
      </trkpt>
      <trkpt lat="43.60392" lon="7.03356">
        <ele>220</ele>
        <time>2011-09-28T11:06:14Z</time>
      </trkpt>
      <trkpt lat="43.60392" lon="7.03355">
        <ele>220</ele>
        <time>2011-09-28T11:06:15Z</time>
      </trkpt>
      <trkpt lat="43.60397" lon="7.03352">
        <ele>220</ele>
        <time>2011-09-28T11:06:25Z</time>
      </trkpt>
      <trkpt lat="43.60387" lon="7.03351">
        <ele>220</ele>
        <time>2011-09-28T11:06:46Z</time>
      </trkpt>
      <trkpt lat="43.60371" lon="7.03349">
        <ele>220</ele>
        <time>2011-09-28T11:06:54Z</time>
      </trkpt>
      <trkpt lat="43.60368" lon="7.0335">
        <ele>220</ele>
        <time>2011-09-28T11:06:58Z</time>
      </trkpt>
      <trkpt lat="43.60374" lon="7.03353">
        <ele>220</ele>
        <time>2011-09-28T11:06:59Z</time>
      </trkpt>
      <trkpt lat="43.60384" lon="7.03353">
        <ele>220</ele>
        <time>2011-09-28T11:07:04Z</time>
      </trkpt>
      <trkpt lat="43.60381" lon="7.03351">
        <ele>220</ele>
        <time>2011-09-28T11:07:20Z</time>
      </trkpt>
      <trkpt lat="43.60379" lon="7.03348">
        <ele>220</ele>
        <time>2011-09-28T11:07:40Z</time>
      </trkpt>
      <trkpt lat="43.60377" lon="7.03352">
        <ele>220</ele>
        <time>2011-09-28T11:07:46Z</time>
      </trkpt>
      <trkpt lat="43.60379" lon="7.03352">
        <ele>220</ele>
        <time>2011-09-28T11:07:50Z</time>
      </trkpt>
      <trkpt lat="43.60384" lon="7.0335">
        <ele>220</ele>
        <time>2011-09-28T11:08:17Z</time>
      </trkpt>
      <trkpt lat="43.60384" lon="7.03352">
        <ele>220</ele>
        <time>2011-09-28T11:08:21Z</time>
      </trkpt>
      <trkpt lat="43.60388" lon="7.03352">
        <ele>220</ele>
        <time>2011-09-28T11:08:29Z</time>
      </trkpt>
      <trkpt lat="43.60385" lon="7.0335">
        <ele>220</ele>
        <time>2011-09-28T11:08:37Z</time>
      </trkpt>
      <trkpt lat="43.60386" lon="7.03354">
        <ele>220</ele>
        <time>2011-09-28T11:08:40Z</time>
      </trkpt>
      <trkpt lat="43.60392" lon="7.0336">
        <ele>220</ele>
        <time>2011-09-28T11:08:44Z</time>
      </trkpt>
      <trkpt lat="43.60386" lon="7.03366">
        <ele>220</ele>
        <time>2011-09-28T11:08:50Z</time>
      </trkpt>
      <trkpt lat="43.6038" lon="7.03357">
        <ele>220</ele>
        <time>2011-09-28T11:08:55Z</time>
      </trkpt>
      <trkpt lat="43.60375" lon="7.03365">
        <ele>220</ele>
        <time>2011-09-28T11:09:03Z</time>
      </trkpt>
      <trkpt lat="43.60371" lon="7.03389">
        <ele>220</ele>
        <time>2011-09-28T11:09:07Z</time>
      </trkpt>
      <trkpt lat="43.60372" lon="7.03411">
        <ele>220</ele>
        <time>2011-09-28T11:09:11Z</time>
      </trkpt>
      <trkpt lat="43.60364" lon="7.03422">
        <ele>220</ele>
        <time>2011-09-28T11:09:15Z</time>
      </trkpt>
      <trkpt lat="43.60357" lon="7.03422">
        <ele>220</ele>
        <time>2011-09-28T11:09:17Z</time>
      </trkpt>
      <trkpt lat="43.60353" lon="7.03421">
        <ele>220</ele>
        <time>2011-09-28T11:09:18Z</time>
      </trkpt>
      <trkpt lat="43.60344" lon="7.03437">
        <ele>220</ele>
        <time>2011-09-28T11:09:22Z</time>
      </trkpt>
      <trkpt lat="43.60347" lon="7.03461">
        <ele>220</ele>
        <time>2011-09-28T11:09:25Z</time>
      </trkpt>
      <trkpt lat="43.60344" lon="7.03473">
        <ele>220</ele>
        <time>2011-09-28T11:09:27Z</time>
      </trkpt>
      <trkpt lat="43.60342" lon="7.03476">
        <ele>220</ele>
        <time>2011-09-28T11:09:28Z</time>
      </trkpt>
      <trkpt lat="43.60338" lon="7.0348">
        <ele>220</ele>
        <time>2011-09-28T11:09:29Z</time>
      </trkpt>
      <trkpt lat="43.60332" lon="7.03488">
        <ele>219.73522949219</ele>
        <time>2011-09-28T11:09:31Z</time>
      </trkpt>
      <trkpt lat="43.60322" lon="7.03494">
        <ele>217.59289550781</ele>
        <time>2011-09-28T11:09:33Z</time>
      </trkpt>
      <trkpt lat="43.60307" lon="7.03507">
        <ele>213.9718170166</ele>
        <time>2011-09-28T11:09:36Z</time>
      </trkpt>
      <trkpt lat="43.60302" lon="7.03511">
        <ele>212.42730712891</ele>
        <time>2011-09-28T11:09:37Z</time>
      </trkpt>
      <trkpt lat="43.60292" lon="7.03518">
        <ele>209.11767578125</ele>
        <time>2011-09-28T11:09:39Z</time>
      </trkpt>
      <trkpt lat="43.60286" lon="7.03523">
        <ele>206.83114624023</ele>
        <time>2011-09-28T11:09:41Z</time>
      </trkpt>
      <trkpt lat="43.60278" lon="7.03544">
        <ele>204.16441345215</ele>
        <time>2011-09-28T11:09:45Z</time>
      </trkpt>
      <trkpt lat="43.6027" lon="7.03567">
        <ele>203.03468322754</ele>
        <time>2011-09-28T11:09:48Z</time>
      </trkpt>
      <trkpt lat="43.60268" lon="7.03574">
        <ele>202.87158203125</ele>
        <time>2011-09-28T11:09:49Z</time>
      </trkpt>
      <trkpt lat="43.60266" lon="7.03579">
        <ele>202.6305847168</ele>
        <time>2011-09-28T11:09:50Z</time>
      </trkpt>
      <trkpt lat="43.60263" lon="7.03592">
        <ele>202.46237182617</ele>
        <time>2011-09-28T11:09:53Z</time>
      </trkpt>
      <trkpt lat="43.60271" lon="7.0361">
        <ele>202.7705078125</ele>
        <time>2011-09-28T11:09:57Z</time>
      </trkpt>
      <trkpt lat="43.60273" lon="7.03613">
        <ele>202.84100341797</ele>
        <time>2011-09-28T11:09:58Z</time>
      </trkpt>
      <trkpt lat="43.60278" lon="7.03628">
        <ele>202.99206542969</ele>
        <time>2011-09-28T11:10:02Z</time>
      </trkpt>
      <trkpt lat="43.60281" lon="7.03657">
        <ele>202.91059875488</ele>
        <time>2011-09-28T11:10:09Z</time>
      </trkpt>
      <trkpt lat="43.60285" lon="7.03673">
        <ele>203.27389526367</ele>
        <time>2011-09-28T11:10:14Z</time>
      </trkpt>
      <trkpt lat="43.60294" lon="7.03689">
        <ele>204.50411987305</ele>
        <time>2011-09-28T11:10:19Z</time>
      </trkpt>
      <trkpt lat="43.6031" lon="7.03697">
        <ele>206.89775085449</ele>
        <time>2011-09-28T11:10:24Z</time>
      </trkpt>
      <trkpt lat="43.60331" lon="7.03703">
        <ele>211.56788635254</ele>
        <time>2011-09-28T11:10:29Z</time>
      </trkpt>
      <trkpt lat="43.6035" lon="7.03712">
        <ele>211.98399353027</ele>
        <time>2011-09-28T11:10:33Z</time>
      </trkpt>
      <trkpt lat="43.60374" lon="7.03716">
        <ele>211.2819519043</ele>
        <time>2011-09-28T11:10:38Z</time>
      </trkpt>
      <trkpt lat="43.6038" lon="7.03715">
        <ele>211.23948669434</ele>
        <time>2011-09-28T11:10:39Z</time>
      </trkpt>
      <trkpt lat="43.6039" lon="7.0371">
        <ele>211.26817321777</ele>
        <time>2011-09-28T11:10:41Z</time>
      </trkpt>
      <trkpt lat="43.60413" lon="7.037">
        <ele>211.53939819336</ele>
        <time>2011-09-28T11:10:46Z</time>
      </trkpt>
      <trkpt lat="43.60419" lon="7.037">
        <ele>211.0740814209</ele>
        <time>2011-09-28T11:10:47Z</time>
      </trkpt>
      <trkpt lat="43.60429" lon="7.03696">
        <ele>210.11190795898</ele>
        <time>2011-09-28T11:10:49Z</time>
      </trkpt>
      <trkpt lat="43.60434" lon="7.03693">
        <ele>209.55116271973</ele>
        <time>2011-09-28T11:10:50Z</time>
      </trkpt>
      <trkpt lat="43.60443" lon="7.03691">
        <ele>208.33065795898</ele>
        <time>2011-09-28T11:10:52Z</time>
      </trkpt>
      <trkpt lat="43.60458" lon="7.03683">
        <ele>206.32171630859</ele>
        <time>2011-09-28T11:10:55Z</time>
      </trkpt>
      <trkpt lat="43.60464" lon="7.03674">
        <ele>205.31918334961</ele>
        <time>2011-09-28T11:10:58Z</time>
      </trkpt>
      <trkpt lat="43.60465" lon="7.03671">
        <ele>205.28649902344</ele>
        <time>2011-09-28T11:10:59Z</time>
      </trkpt>
      <trkpt lat="43.60463" lon="7.03653">
        <ele>206.32939147949</ele>
        <time>2011-09-28T11:11:04Z</time>
      </trkpt>
      <trkpt lat="43.60465" lon="7.0363">
        <ele>206.67692565918</ele>
        <time>2011-09-28T11:11:11Z</time>
      </trkpt>
      <trkpt lat="43.6047" lon="7.03608">
        <ele>205.7373046875</ele>
        <time>2011-09-28T11:11:18Z</time>
      </trkpt>
      <trkpt lat="43.60471" lon="7.036">
        <ele>205.62948608398</ele>
        <time>2011-09-28T11:11:23Z</time>
      </trkpt>
      <trkpt lat="43.60473" lon="7.03587">
        <ele>205.72268676758</ele>
        <time>2011-09-28T11:11:27Z</time>
      </trkpt>
      <trkpt lat="43.60475" lon="7.03566">
        <ele>206.71136474609</ele>
        <time>2011-09-28T11:11:33Z</time>
      </trkpt>
      <trkpt lat="43.60476" lon="7.03541">
        <ele>207.79556274414</ele>
        <time>2011-09-28T11:11:39Z</time>
      </trkpt>
      <trkpt lat="43.60472" lon="7.03514">
        <ele>209.44351196289</ele>
        <time>2011-09-28T11:11:46Z</time>
      </trkpt>
      <trkpt lat="43.60474" lon="7.03486">
        <ele>210.69351196289</ele>
        <time>2011-09-28T11:11:53Z</time>
      </trkpt>
      <trkpt lat="43.60471" lon="7.03461">
        <ele>212.74426269531</ele>
        <time>2011-09-28T11:12:00Z</time>
      </trkpt>
      <trkpt lat="43.6047" lon="7.03437">
        <ele>213.77268981934</ele>
        <time>2011-09-28T11:12:06Z</time>
      </trkpt>
      <trkpt lat="43.6047" lon="7.0341">
        <ele>214.28463745117</ele>
        <time>2011-09-28T11:12:12Z</time>
      </trkpt>
      <trkpt lat="43.60472" lon="7.03383">
        <ele>212.71675109863</ele>
        <time>2011-09-28T11:12:19Z</time>
      </trkpt>
      <trkpt lat="43.60477" lon="7.03365">
        <ele>210.97640991211</ele>
        <time>2011-09-28T11:12:24Z</time>
      </trkpt>
      <trkpt lat="43.60482" lon="7.0334">
        <ele>207.57229614258</ele>
        <time>2011-09-28T11:12:30Z</time>
      </trkpt>
      <trkpt lat="43.60485" lon="7.03316">
        <ele>204.57688903809</ele>
        <time>2011-09-28T11:12:36Z</time>
      </trkpt>
      <trkpt lat="43.6048" lon="7.03297">
        <ele>203.95639038086</ele>
        <time>2011-09-28T11:12:41Z</time>
      </trkpt>
      <trkpt lat="43.60479" lon="7.03277">
        <ele>202.98307800293</ele>
        <time>2011-09-28T11:12:45Z</time>
      </trkpt>
      <trkpt lat="43.60479" lon="7.03254">
        <ele>200.16091918945</ele>
        <time>2011-09-28T11:12:51Z</time>
      </trkpt>
      <trkpt lat="43.60481" lon="7.03236">
        <ele>197.04905700684</ele>
        <time>2011-09-28T11:12:56Z</time>
      </trkpt>
      <trkpt lat="43.60487" lon="7.03215">
        <ele>192.27659606934</ele>
        <time>2011-09-28T11:13:03Z</time>
      </trkpt>
      <trkpt lat="43.60484" lon="7.03211">
        <ele>192.23429870606</ele>
        <time>2011-09-28T11:13:08Z</time>
      </trkpt>
      <trkpt lat="43.6048" lon="7.03215">
        <ele>193.84075927734</ele>
        <time>2011-09-28T11:13:21Z</time>
      </trkpt>
      <trkpt lat="43.60486" lon="7.03201">
        <ele>190.07772827148</ele>
        <time>2011-09-28T11:13:25Z</time>
      </trkpt>
      <trkpt lat="43.60493" lon="7.03192">
        <ele>186.78605651856</ele>
        <time>2011-09-28T11:13:29Z</time>
      </trkpt>
      <trkpt lat="43.60497" lon="7.03188">
        <ele>185.33876037598</ele>
        <time>2011-09-28T11:13:31Z</time>
      </trkpt>
      <trkpt lat="43.60503" lon="7.03178">
        <ele>181.93620300293</ele>
        <time>2011-09-28T11:13:35Z</time>
      </trkpt>
      <trkpt lat="43.6051" lon="7.03166">
        <ele>177.9842376709</ele>
        <time>2011-09-28T11:13:38Z</time>
      </trkpt>
      <trkpt lat="43.60519" lon="7.0316">
        <ele>175.39215087891</ele>
        <time>2011-09-28T11:13:43Z</time>
      </trkpt>
      <trkpt lat="43.60526" lon="7.03152">
        <ele>172.57690429688</ele>
        <time>2011-09-28T11:13:48Z</time>
      </trkpt>
      <trkpt lat="43.60527" lon="7.03149">
        <ele>171.9674987793</ele>
        <time>2011-09-28T11:13:49Z</time>
      </trkpt>
      <trkpt lat="43.60531" lon="7.03125">
        <ele>165.36618041992</ele>
        <time>2011-09-28T11:13:55Z</time>
      </trkpt>
      <trkpt lat="43.60529" lon="7.03108">
        <ele>161.63116455078</ele>
        <time>2011-09-28T11:13:59Z</time>
      </trkpt>
      <trkpt lat="43.60524" lon="7.03093">
        <ele>160.64909362793</ele>
        <time>2011-09-28T11:14:03Z</time>
      </trkpt>
      <trkpt lat="43.60522" lon="7.03076">
        <ele>159.42224121094</ele>
        <time>2011-09-28T11:14:07Z</time>
      </trkpt>
      <trkpt lat="43.60524" lon="7.03073">
        <ele>159.25677490234</ele>
        <time>2011-09-28T11:14:08Z</time>
      </trkpt>
      <trkpt lat="43.60525" lon="7.03055">
        <ele>159</ele>
        <time>2011-09-28T11:14:12Z</time>
      </trkpt>
      <trkpt lat="43.60523" lon="7.03046">
        <ele>159</ele>
        <time>2011-09-28T11:14:15Z</time>
      </trkpt>
      <trkpt lat="43.60525" lon="7.03046">
        <ele>159</ele>
        <time>2011-09-28T11:14:17Z</time>
      </trkpt>
      <trkpt lat="43.60523" lon="7.03047">
        <ele>159</ele>
        <time>2011-09-28T11:14:35Z</time>
      </trkpt>
      <trkpt lat="43.60521" lon="7.03049">
        <ele>159</ele>
        <time>2011-09-28T11:14:39Z</time>
      </trkpt>
      <trkpt lat="43.60527" lon="7.03044">
        <ele>159</ele>
        <time>2011-09-28T11:15:42Z</time>
      </trkpt>
      <trkpt lat="43.60526" lon="7.03045">
        <ele>159</ele>
        <time>2011-09-28T11:15:46Z</time>
      </trkpt>
      <trkpt lat="43.60537" lon="7.03036">
        <ele>159</ele>
        <time>2011-09-28T11:16:09Z</time>
      </trkpt>
      <trkpt lat="43.60535" lon="7.03035">
        <ele>159</ele>
        <time>2011-09-28T11:16:46Z</time>
      </trkpt>
      <trkpt lat="43.60533" lon="7.03042">
        <ele>159</ele>
        <time>2011-09-28T11:17:18Z</time>
      </trkpt>
      <trkpt lat="43.60536" lon="7.03046">
        <ele>159</ele>
        <time>2011-09-28T11:17:22Z</time>
      </trkpt>
      <trkpt lat="43.60537" lon="7.03048">
        <ele>159</ele>
        <time>2011-09-28T11:17:23Z</time>
      </trkpt>
      <trkpt lat="43.60548" lon="7.0306">
        <ele>159</ele>
        <time>2011-09-28T11:17:26Z</time>
      </trkpt>
      <trkpt lat="43.60571" lon="7.03082">
        <ele>159</ele>
        <time>2011-09-28T11:17:30Z</time>
      </trkpt>
      <trkpt lat="43.60598" lon="7.03112">
        <ele>159</ele>
        <time>2011-09-28T11:17:35Z</time>
      </trkpt>
      <trkpt lat="43.60626" lon="7.03145">
        <ele>159</ele>
        <time>2011-09-28T11:17:40Z</time>
      </trkpt>
      <trkpt lat="43.6063" lon="7.03152">
        <ele>159</ele>
        <time>2011-09-28T11:17:41Z</time>
      </trkpt>
      <trkpt lat="43.60647" lon="7.03172">
        <ele>159</ele>
        <time>2011-09-28T11:17:44Z</time>
      </trkpt>
      <trkpt lat="43.60651" lon="7.03181">
        <ele>159</ele>
        <time>2011-09-28T11:17:45Z</time>
      </trkpt>
      <trkpt lat="43.60657" lon="7.032">
        <ele>159</ele>
        <time>2011-09-28T11:17:47Z</time>
      </trkpt>
      <trkpt lat="43.60657" lon="7.03224">
        <ele>159.01658630371</ele>
        <time>2011-09-28T11:17:50Z</time>
      </trkpt>
      <trkpt lat="43.60656" lon="7.03231">
        <ele>159.11569213867</ele>
        <time>2011-09-28T11:17:51Z</time>
      </trkpt>
      <trkpt lat="43.60653" lon="7.03263">
        <ele>159.70277404785</ele>
        <time>2011-09-28T11:17:56Z</time>
      </trkpt>
      <trkpt lat="43.60652" lon="7.03269">
        <ele>159.89895629883</ele>
        <time>2011-09-28T11:17:57Z</time>
      </trkpt>
      <trkpt lat="43.60648" lon="7.03285">
        <ele>160.64700317383</ele>
        <time>2011-09-28T11:18:00Z</time>
      </trkpt>
      <trkpt lat="43.60646" lon="7.03291">
        <ele>160.99203491211</ele>
        <time>2011-09-28T11:18:01Z</time>
      </trkpt>
      <trkpt lat="43.60644" lon="7.03303">
        <ele>161.54821777344</ele>
        <time>2011-09-28T11:18:03Z</time>
      </trkpt>
      <trkpt lat="43.60643" lon="7.03319">
        <ele>162.68714904785</ele>
        <time>2011-09-28T11:18:06Z</time>
      </trkpt>
      <trkpt lat="43.60641" lon="7.03334">
        <ele>163.91134643555</ele>
        <time>2011-09-28T11:18:09Z</time>
      </trkpt>
      <trkpt lat="43.60639" lon="7.03343">
        <ele>164.75291442871</ele>
        <time>2011-09-28T11:18:11Z</time>
      </trkpt>
      <trkpt lat="43.60629" lon="7.03376">
        <ele>171.88517761231</ele>
        <time>2011-09-28T11:18:17Z</time>
      </trkpt>
      <trkpt lat="43.60615" lon="7.03418">
        <ele>179.07286071777</ele>
        <time>2011-09-28T11:18:25Z</time>
      </trkpt>
      <trkpt lat="43.60611" lon="7.03426">
        <ele>180.7024230957</ele>
        <time>2011-09-28T11:18:27Z</time>
      </trkpt>
      <trkpt lat="43.60603" lon="7.03432">
        <ele>182.65830993652</ele>
        <time>2011-09-28T11:18:30Z</time>
      </trkpt>
      <trkpt lat="43.60588" lon="7.03449">
        <ele>186.634765625</ele>
        <time>2011-09-28T11:18:36Z</time>
      </trkpt>
      <trkpt lat="43.6058" lon="7.03461">
        <ele>188.6240234375</ele>
        <time>2011-09-28T11:18:41Z</time>
      </trkpt>
      <trkpt lat="43.60579" lon="7.03463">
        <ele>188.95361328125</ele>
        <time>2011-09-28T11:18:42Z</time>
      </trkpt>
      <trkpt lat="43.60572" lon="7.03463">
        <ele>190.35437011719</ele>
        <time>2011-09-28T11:18:45Z</time>
      </trkpt>
      <trkpt lat="43.60567" lon="7.03466">
        <ele>191.42553710938</ele>
        <time>2011-09-28T11:18:48Z</time>
      </trkpt>
      <trkpt lat="43.60564" lon="7.0347">
        <ele>192.16711425781</ele>
        <time>2011-09-28T11:18:50Z</time>
      </trkpt>
      <trkpt lat="43.60555" lon="7.0348">
        <ele>193.8762512207</ele>
        <time>2011-09-28T11:18:56Z</time>
      </trkpt>
      <trkpt lat="43.60552" lon="7.03488">
        <ele>194.22122192383</ele>
        <time>2011-09-28T11:19:01Z</time>
      </trkpt>
      <trkpt lat="43.60549" lon="7.035">
        <ele>194.60768127441</ele>
        <time>2011-09-28T11:19:13Z</time>
      </trkpt>
      <trkpt lat="43.60546" lon="7.03504">
        <ele>195.33326721191</ele>
        <time>2011-09-28T11:19:15Z</time>
      </trkpt>
      <trkpt lat="43.60535" lon="7.03519">
        <ele>197.7580871582</ele>
        <time>2011-09-28T11:19:21Z</time>
      </trkpt>
      <trkpt lat="43.60529" lon="7.0353">
        <ele>198.74743652344</ele>
        <time>2011-09-28T11:19:25Z</time>
      </trkpt>
      <trkpt lat="43.60526" lon="7.03533">
        <ele>199.12680053711</ele>
        <time>2011-09-28T11:19:28Z</time>
      </trkpt>
      <trkpt lat="43.60525" lon="7.03536">
        <ele>199.13882446289</ele>
        <time>2011-09-28T11:19:29Z</time>
      </trkpt>
      <trkpt lat="43.60524" lon="7.03544">
        <ele>199.01522827148</ele>
        <time>2011-09-28T11:19:34Z</time>
      </trkpt>
      <trkpt lat="43.60523" lon="7.03556">
        <ele>198.65257263184</ele>
        <time>2011-09-28T11:19:47Z</time>
      </trkpt>
      <trkpt lat="43.60523" lon="7.03564">
        <ele>198.31491088867</ele>
        <time>2011-09-28T11:19:51Z</time>
      </trkpt>
      <trkpt lat="43.60524" lon="7.03567">
        <ele>198.07456970215</ele>
        <time>2011-09-28T11:19:53Z</time>
      </trkpt>
      <trkpt lat="43.6052" lon="7.0357">
        <ele>198.45924377441</ele>
        <time>2011-09-28T11:19:58Z</time>
      </trkpt>
      <trkpt lat="43.60517" lon="7.03571">
        <ele>198.82055664062</ele>
        <time>2011-09-28T11:20:01Z</time>
      </trkpt>
      <trkpt lat="43.60518" lon="7.0357">
        <ele>198.77284240723</ele>
        <time>2011-09-28T11:20:03Z</time>
      </trkpt>
      <trkpt lat="43.60517" lon="7.03569">
        <ele>198.88244628906</ele>
        <time>2011-09-28T11:20:06Z</time>
      </trkpt>
      <trkpt lat="43.60518" lon="7.03577">
        <ele>198.34069824219</ele>
        <time>2011-09-28T11:20:12Z</time>
      </trkpt>
      <trkpt lat="43.60518" lon="7.03593">
        <ele>197.75952148438</ele>
        <time>2011-09-28T11:20:18Z</time>
      </trkpt>
      <trkpt lat="43.60523" lon="7.03609">
        <ele>196.56819152832</ele>
        <time>2011-09-28T11:20:22Z</time>
      </trkpt>
      <trkpt lat="43.60529" lon="7.0363">
        <ele>195.81843566894</ele>
        <time>2011-09-28T11:20:26Z</time>
      </trkpt>
      <trkpt lat="43.60533" lon="7.03655">
        <ele>195.87464904785</ele>
        <time>2011-09-28T11:20:31Z</time>
      </trkpt>
      <trkpt lat="43.60532" lon="7.03684">
        <ele>196.91268920898</ele>
        <time>2011-09-28T11:20:37Z</time>
      </trkpt>
      <trkpt lat="43.60528" lon="7.03686">
        <ele>197.64099121094</ele>
        <time>2011-09-28T11:20:39Z</time>
      </trkpt>
      <trkpt lat="43.60524" lon="7.03688">
        <ele>197.91777038574</ele>
        <time>2011-09-28T11:20:41Z</time>
      </trkpt>
      <trkpt lat="43.6052" lon="7.0369">
        <ele>198.18344116211</ele>
        <time>2011-09-28T11:20:43Z</time>
      </trkpt>
      <trkpt lat="43.60513" lon="7.03698">
        <ele>198.59243774414</ele>
        <time>2011-09-28T11:20:47Z</time>
      </trkpt>
      <trkpt lat="43.6051" lon="7.037">
        <ele>198.77392578125</ele>
        <time>2011-09-28T11:20:49Z</time>
      </trkpt>
      <trkpt lat="43.60508" lon="7.03698">
        <ele>198.81045532227</ele>
        <time>2011-09-28T11:20:51Z</time>
      </trkpt>
      <trkpt lat="43.60503" lon="7.03697">
        <ele>198.96049499512</ele>
        <time>2011-09-28T11:20:57Z</time>
      </trkpt>
      <trkpt lat="43.60504" lon="7.037">
        <ele>199.04664611816</ele>
        <time>2011-09-28T11:21:01Z</time>
      </trkpt>
      <trkpt lat="43.60506" lon="7.03697">
        <ele>198.85021972656</ele>
        <time>2011-09-28T11:21:21Z</time>
      </trkpt>
      <trkpt lat="43.60505" lon="7.03696">
        <ele>198.86958312988</ele>
        <time>2011-09-28T11:21:22Z</time>
      </trkpt>
      <trkpt lat="43.605" lon="7.03698">
        <ele>199.20481872559</ele>
        <time>2011-09-28T11:21:25Z</time>
      </trkpt>
      <trkpt lat="43.60496" lon="7.03699">
        <ele>199.88502502441</ele>
        <time>2011-09-28T11:21:27Z</time>
      </trkpt>
      <trkpt lat="43.60485" lon="7.03699">
        <ele>201.73927307129</ele>
        <time>2011-09-28T11:21:33Z</time>
      </trkpt>
      <trkpt lat="43.60476" lon="7.03703">
        <ele>203.04495239258</ele>
        <time>2011-09-28T11:21:40Z</time>
      </trkpt>
      <trkpt lat="43.60468" lon="7.03708">
        <ele>204.17987060547</ele>
        <time>2011-09-28T11:21:46Z</time>
      </trkpt>
      <trkpt lat="43.60468" lon="7.03713">
        <ele>203.94299316406</ele>
        <time>2011-09-28T11:21:53Z</time>
      </trkpt>
      <trkpt lat="43.6046" lon="7.03718">
        <ele>204.93690490723</ele>
        <time>2011-09-28T11:21:56Z</time>
      </trkpt>
      <trkpt lat="43.60438" lon="7.03728">
        <ele>206.99665832519</ele>
        <time>2011-09-28T11:22:00Z</time>
      </trkpt>
      <trkpt lat="43.60408" lon="7.03742">
        <ele>206.92579650879</ele>
        <time>2011-09-28T11:22:04Z</time>
      </trkpt>
      <trkpt lat="43.60377" lon="7.03754">
        <ele>206.49447631836</ele>
        <time>2011-09-28T11:22:08Z</time>
      </trkpt>
      <trkpt lat="43.60344" lon="7.03762">
        <ele>206.30372619629</ele>
        <time>2011-09-28T11:22:12Z</time>
      </trkpt>
      <trkpt lat="43.60336" lon="7.03764">
        <ele>206.06240844727</ele>
        <time>2011-09-28T11:22:13Z</time>
      </trkpt>
      <trkpt lat="43.60328" lon="7.03767">
        <ele>205.15409851074</ele>
        <time>2011-09-28T11:22:14Z</time>
      </trkpt>
      <trkpt lat="43.60315" lon="7.03777">
        <ele>203.00143432617</ele>
        <time>2011-09-28T11:22:16Z</time>
      </trkpt>
      <trkpt lat="43.60299" lon="7.03802">
        <ele>201.10359191894</ele>
        <time>2011-09-28T11:22:19Z</time>
      </trkpt>
      <trkpt lat="43.60292" lon="7.03835">
        <ele>198.97250366211</ele>
        <time>2011-09-28T11:22:22Z</time>
      </trkpt>
      <trkpt lat="43.60291" lon="7.0386">
        <ele>198.55354309082</ele>
        <time>2011-09-28T11:22:24Z</time>
      </trkpt>
      <trkpt lat="43.60293" lon="7.0388">
        <ele>196.75881958008</ele>
        <time>2011-09-28T11:22:26Z</time>
      </trkpt>
      <trkpt lat="43.603" lon="7.03899">
        <ele>194.84323120117</ele>
        <time>2011-09-28T11:22:29Z</time>
      </trkpt>
      <trkpt lat="43.60311" lon="7.03924">
        <ele>192.29273986816</ele>
        <time>2011-09-28T11:22:33Z</time>
      </trkpt>
      <trkpt lat="43.60316" lon="7.03936">
        <ele>191.33517456055</ele>
        <time>2011-09-28T11:22:35Z</time>
      </trkpt>
      <trkpt lat="43.60316" lon="7.03942">
        <ele>191.04220581055</ele>
        <time>2011-09-28T11:22:36Z</time>
      </trkpt>
      <trkpt lat="43.60314" lon="7.03949">
        <ele>190.57431030273</ele>
        <time>2011-09-28T11:22:38Z</time>
      </trkpt>
      <trkpt lat="43.60314" lon="7.03967">
        <ele>188.58648681641</ele>
        <time>2011-09-28T11:22:42Z</time>
      </trkpt>
      <trkpt lat="43.60315" lon="7.03974">
        <ele>187.81993103027</ele>
        <time>2011-09-28T11:22:43Z</time>
      </trkpt>
      <trkpt lat="43.60317" lon="7.04005">
        <ele>185.08010864258</ele>
        <time>2011-09-28T11:22:48Z</time>
      </trkpt>
      <trkpt lat="43.60316" lon="7.0402">
        <ele>184.57780456543</ele>
        <time>2011-09-28T11:22:50Z</time>
      </trkpt>
      <trkpt lat="43.60314" lon="7.0403">
        <ele>184.30015563965</ele>
        <time>2011-09-28T11:22:52Z</time>
      </trkpt>
      <trkpt lat="43.60319" lon="7.04054">
        <ele>181.65867614746</ele>
        <time>2011-09-28T11:22:56Z</time>
      </trkpt>
      <trkpt lat="43.60323" lon="7.04082">
        <ele>180.76136779785</ele>
        <time>2011-09-28T11:23:00Z</time>
      </trkpt>
      <trkpt lat="43.60332" lon="7.04099">
        <ele>180.05249023438</ele>
        <time>2011-09-28T11:23:03Z</time>
      </trkpt>
      <trkpt lat="43.6035" lon="7.04127">
        <ele>180</ele>
        <time>2011-09-28T11:23:08Z</time>
      </trkpt>
      <trkpt lat="43.60355" lon="7.04131">
        <ele>180</ele>
        <time>2011-09-28T11:23:09Z</time>
      </trkpt>
      <trkpt lat="43.60359" lon="7.04136">
        <ele>180</ele>
        <time>2011-09-28T11:23:10Z</time>
      </trkpt>
      <trkpt lat="43.60373" lon="7.04142">
        <ele>180</ele>
        <time>2011-09-28T11:23:12Z</time>
      </trkpt>
      <trkpt lat="43.60383" lon="7.04151">
        <ele>180</ele>
        <time>2011-09-28T11:23:14Z</time>
      </trkpt>
      <trkpt lat="43.60387" lon="7.04158">
        <ele>180</ele>
        <time>2011-09-28T11:23:15Z</time>
      </trkpt>
      <trkpt lat="43.60394" lon="7.04163">
        <ele>180</ele>
        <time>2011-09-28T11:23:16Z</time>
      </trkpt>
      <trkpt lat="43.60408" lon="7.0417">
        <ele>179.86666870117</ele>
        <time>2011-09-28T11:23:19Z</time>
      </trkpt>
      <trkpt lat="43.60412" lon="7.04171">
        <ele>179.83920288086</ele>
        <time>2011-09-28T11:23:20Z</time>
      </trkpt>
      <trkpt lat="43.60423" lon="7.0418">
        <ele>179.51306152344</ele>
        <time>2011-09-28T11:23:24Z</time>
      </trkpt>
      <trkpt lat="43.60441" lon="7.04199">
        <ele>179</ele>
        <time>2011-09-28T11:23:29Z</time>
      </trkpt>
      <trkpt lat="43.60457" lon="7.04226">
        <ele>179</ele>
        <time>2011-09-28T11:23:34Z</time>
      </trkpt>
      <trkpt lat="43.60465" lon="7.04239">
        <ele>179</ele>
        <time>2011-09-28T11:23:36Z</time>
      </trkpt>
      <trkpt lat="43.60468" lon="7.04246">
        <ele>179</ele>
        <time>2011-09-28T11:23:37Z</time>
      </trkpt>
      <trkpt lat="43.60473" lon="7.0426">
        <ele>179</ele>
        <time>2011-09-28T11:23:39Z</time>
      </trkpt>
      <trkpt lat="43.60477" lon="7.04277">
        <ele>179</ele>
        <time>2011-09-28T11:23:41Z</time>
      </trkpt>
      <trkpt lat="43.60477" lon="7.04293">
        <ele>179</ele>
        <time>2011-09-28T11:23:43Z</time>
      </trkpt>
      <trkpt lat="43.6048" lon="7.04304">
        <ele>179</ele>
        <time>2011-09-28T11:23:45Z</time>
      </trkpt>
      <trkpt lat="43.60483" lon="7.04316">
        <ele>178.62242126465</ele>
        <time>2011-09-28T11:23:47Z</time>
      </trkpt>
      <trkpt lat="43.6049" lon="7.04339">
        <ele>178</ele>
        <time>2011-09-28T11:23:51Z</time>
      </trkpt>
      <trkpt lat="43.60494" lon="7.04352">
        <ele>178</ele>
        <time>2011-09-28T11:23:53Z</time>
      </trkpt>
      <trkpt lat="43.60499" lon="7.04363">
        <ele>178</ele>
        <time>2011-09-28T11:23:55Z</time>
      </trkpt>
      <trkpt lat="43.60501" lon="7.04373">
        <ele>177.94836425781</ele>
        <time>2011-09-28T11:23:57Z</time>
      </trkpt>
      <trkpt lat="43.60503" lon="7.04389">
        <ele>177.81103515625</ele>
        <time>2011-09-28T11:24:00Z</time>
      </trkpt>
      <trkpt lat="43.60513" lon="7.04408">
        <ele>177.0419921875</ele>
        <time>2011-09-28T11:24:04Z</time>
      </trkpt>
      <trkpt lat="43.60514" lon="7.04415">
        <ele>176.95959472656</ele>
        <time>2011-09-28T11:24:05Z</time>
      </trkpt>
      <trkpt lat="43.60517" lon="7.04426">
        <ele>176.56759643555</ele>
        <time>2011-09-28T11:24:07Z</time>
      </trkpt>
      <trkpt lat="43.60517" lon="7.04433">
        <ele>176.40254211426</ele>
        <time>2011-09-28T11:24:08Z</time>
      </trkpt>
      <trkpt lat="43.6052" lon="7.04461">
        <ele>175.66195678711</ele>
        <time>2011-09-28T11:24:12Z</time>
      </trkpt>
      <trkpt lat="43.60529" lon="7.04484">
        <ele>174.85610961914</ele>
        <time>2011-09-28T11:24:16Z</time>
      </trkpt>
      <trkpt lat="43.60544" lon="7.04504">
        <ele>172.63278198242</ele>
        <time>2011-09-28T11:24:20Z</time>
      </trkpt>
      <trkpt lat="43.6055" lon="7.04524">
        <ele>171.59245300293</ele>
        <time>2011-09-28T11:24:23Z</time>
      </trkpt>
      <trkpt lat="43.60554" lon="7.04529">
        <ele>171.1032409668</ele>
        <time>2011-09-28T11:24:24Z</time>
      </trkpt>
      <trkpt lat="43.60561" lon="7.04541">
        <ele>169.98294067383</ele>
        <time>2011-09-28T11:24:26Z</time>
      </trkpt>
      <trkpt lat="43.60569" lon="7.04557">
        <ele>168.47509765625</ele>
        <time>2011-09-28T11:24:28Z</time>
      </trkpt>
      <trkpt lat="43.60574" lon="7.04565">
        <ele>167.74705505371</ele>
        <time>2011-09-28T11:24:29Z</time>
      </trkpt>
      <trkpt lat="43.60584" lon="7.04603">
        <ele>165.2073059082</ele>
        <time>2011-09-28T11:24:33Z</time>
      </trkpt>
      <trkpt lat="43.60588" lon="7.04626">
        <ele>164.48803710938</ele>
        <time>2011-09-28T11:24:36Z</time>
      </trkpt>
      <trkpt lat="43.60589" lon="7.04633">
        <ele>164.36444091797</ele>
        <time>2011-09-28T11:24:37Z</time>
      </trkpt>
      <trkpt lat="43.60593" lon="7.04657">
        <ele>163.99365234375</ele>
        <time>2011-09-28T11:24:40Z</time>
      </trkpt>
      <trkpt lat="43.60593" lon="7.04675">
        <ele>164.27673339844</ele>
        <time>2011-09-28T11:24:42Z</time>
      </trkpt>
      <trkpt lat="43.60582" lon="7.04709">
        <ele>166.22125244141</ele>
        <time>2011-09-28T11:24:46Z</time>
      </trkpt>
      <trkpt lat="43.60566" lon="7.04758">
        <ele>169.50225830078</ele>
        <time>2011-09-28T11:24:52Z</time>
      </trkpt>
      <trkpt lat="43.60555" lon="7.04801">
        <ele>171.36740112305</ele>
        <time>2011-09-28T11:24:57Z</time>
      </trkpt>
      <trkpt lat="43.60551" lon="7.04807">
        <ele>171.70695495606</ele>
        <time>2011-09-28T11:24:58Z</time>
      </trkpt>
      <trkpt lat="43.6054" lon="7.04828">
        <ele>172.22537231445</ele>
        <time>2011-09-28T11:25:01Z</time>
      </trkpt>
      <trkpt lat="43.60532" lon="7.04841">
        <ele>172.75408935547</ele>
        <time>2011-09-28T11:25:03Z</time>
      </trkpt>
      <trkpt lat="43.60519" lon="7.04864">
        <ele>172.51309204102</ele>
        <time>2011-09-28T11:25:06Z</time>
      </trkpt>
      <trkpt lat="43.60508" lon="7.04882">
        <ele>172.64526367188</ele>
        <time>2011-09-28T11:25:09Z</time>
      </trkpt>
      <trkpt lat="43.60505" lon="7.04887">
        <ele>172.72250366211</ele>
        <time>2011-09-28T11:25:10Z</time>
      </trkpt>
      <trkpt lat="43.60492" lon="7.04909">
        <ele>172.39530944824</ele>
        <time>2011-09-28T11:25:13Z</time>
      </trkpt>
      <trkpt lat="43.60491" lon="7.04914">
        <ele>172.16528320312</ele>
        <time>2011-09-28T11:25:14Z</time>
      </trkpt>
      <trkpt lat="43.60479" lon="7.04945">
        <ele>171.47792053223</ele>
        <time>2011-09-28T11:25:18Z</time>
      </trkpt>
      <trkpt lat="43.60471" lon="7.04959">
        <ele>171.02575683594</ele>
        <time>2011-09-28T11:25:20Z</time>
      </trkpt>
      <trkpt lat="43.60467" lon="7.04965">
        <ele>170.79989624023</ele>
        <time>2011-09-28T11:25:21Z</time>
      </trkpt>
    </trkseg>
  </trk>
</gpx>